PORTS® Data Listing: 8454049 Quonset Point, RI

CO-OPS RAW PORTS DATA

************************      PRELIMINARY DATA      ************************** 

     THIS RAW DATA HAS NOT BEEN SUBJECT TO THE NATIONAL OCEAN SERVICE'S        
     QUALITY CONTROL OR QUALITY ASSURANCE PROCEDURES AND DOES NOT MEET         
     THE CRITERIA AND STANDARDS OF OFFICIAL NATIONAL OCEAN SERVICE             
     DATA.  IT IS RELEASED FOR LIMITED PUBLIC USE AS PRELIMINARY DATA TO       
     BE USED ONLY WITH APPROPRIATE CAUTION.                                    

************************      PRELIMINARY DATA      ************************** 


       CD   -   Calendar date
       T    -   Time
       TZ   -   Timezone
       PW   -   Predicted water level (feet above MLLW)
       OW   -   Observed water level (feet above MLLW)
       WS   -   Wind speed (knots)
       WD   -   Wind direction (degrees true)
       WG   -   Wind gust (knots)
       AT   -   Air temperature (degrees farenheit)
       WT   -   Water temperature (degrees farenheit)
       AP   -   Air pressure (millibars)
       SA   -   Salinty (PSU - Practical Salinity Units)
       SG   -   Specific gravity
       RH   -   Relative humidity
       AG   -   Air gap (feet)
       VI   -   Visibility (nautical miles)

       ** NOTE **
       A variable that has its data fields filled with "9"s, indicates that
       data was not collected for that sample period.
       **********


STATION NAME: Quonset Point (8454049)
****************************************************************************************************
    CD       T    TZ    PW     OW    WS   WD   WG    AT    WT    AP    SA    SG     RH    AG   VI
****************************************************************************************************
2019/09/14 12:36 EDT    0.91   1.37   19  177   21  67.3  68.0 1026.1 14.2  1.010 -99.9 -99.99 -9.99
2019/09/14 12:42 EDT    0.83   1.26   18  178   22  67.3  68.0 1026.0 14.2  1.010 -99.9 -99.99 -9.99
2019/09/14 12:48 EDT    0.74   1.15   20  180   24  67.6  68.0 1026.0 14.2  1.010 -99.9 -99.99 -9.99
2019/09/14 12:54 EDT    0.66   1.04   18  182   23  67.6  68.0 1026.1 14.2  1.010 -99.9 -99.99 -9.99
2019/09/14 13:00 EDT    0.59   0.97   20  179   24  67.8  68.0 1026.1 14.2  1.010 -99.9 -99.99 -9.99
2019/09/14 13:06 EDT    0.52   0.88   20  184   22  67.6  68.0 1026.1 14.2  1.010 -99.9 -99.99 -9.99
2019/09/14 13:12 EDT    0.46   0.82   19  180   23  67.6  68.2 1026.0 14.2  1.010 -99.9 -99.99 -9.99
2019/09/14 13:18 EDT    0.41   0.77   16  185   21  67.6  68.2 1025.9 14.2  1.010 -99.9 -99.99 -9.99
2019/09/14 13:24 EDT    0.36   0.71   16  189   21  67.6  68.2 1025.8 14.2  1.010 -99.9 -99.99 -9.99
2019/09/14 13:30 EDT    0.31   0.60   20  185   23  68.2  68.2 1025.8 14.2  1.010 -99.9 -99.99 -9.99
2019/09/14 13:36 EDT    0.28   0.56   18  185   21  68.0  68.2 1025.7 14.2  1.010 -99.9 -99.99 -9.99
2019/09/14 13:42 EDT    0.24   0.49   18  180   23  68.0  68.2 1025.5 14.2  1.010 -99.9 -99.99 -9.99
2019/09/14 13:48 EDT    0.22   0.46   19  181   22  68.0  68.2 1025.3 14.2  1.010 -99.9 -99.99 -9.99
2019/09/14 13:54 EDT    0.20   0.41   19  182   24  68.2  68.2 1025.1 14.2  1.010 -99.9 -99.99 -9.99
2019/09/14 14:00 EDT    0.18   0.41   18  184   24  68.2  68.2 1025.2 14.2  1.010 -99.9 -99.99 -9.99
2019/09/14 14:06 EDT    0.17   0.40   18  179   23  68.2  68.2 1025.0 14.2  1.010 -99.9 -99.99 -9.99
2019/09/14 14:12 EDT    0.17   0.35   17  181   20  68.0  68.2 1025.0 14.2  1.010 -99.9 -99.99 -9.99
2019/09/14 14:18 EDT    0.17   0.36   17  184   20  68.2  68.2 1024.8 14.2  1.010 -99.9 -99.99 -9.99
2019/09/14 14:24 EDT    0.18   0.38   17  182   20  68.4  68.2 1024.8 14.2  1.010 -99.9 -99.99 -9.99
2019/09/14 14:30 EDT    0.19   0.38   17  202   20  69.6  68.2 1024.7 14.2  1.010 -99.9 -99.99 -9.99
2019/09/14 14:36 EDT    0.20   0.39   18  203   22  70.3  68.2 1024.6 14.2  1.010 -99.9 -99.99 -9.99
2019/09/14 14:42 EDT    0.22   0.42   19  208   22  70.5  68.2 1024.5 14.2  1.010 -99.9 -99.99 -9.99
2019/09/14 14:48 EDT    0.24   0.44   17  203   21  70.5  68.0 1024.5 14.2  1.010 -99.9 -99.99 -9.99
2019/09/14 14:54 EDT    0.27   0.45   17  205   20  70.5  68.0 1024.5 14.2  1.010 -99.9 -99.99 -9.99
2019/09/14 15:00 EDT    0.30   0.49   19  205   22  70.3  67.8 1024.4 14.2  1.010 -99.9 -99.99 -9.99
2019/09/14 15:06 EDT    0.33   0.50   17  209   25  70.3  67.8 1024.3 14.2  1.010 -99.9 -99.99 -9.99
2019/09/14 15:12 EDT    0.37   0.55   17  204   22  70.3  67.8 1024.2 14.2  1.010 -99.9 -99.99 -9.99
2019/09/14 15:18 EDT    0.40   0.58   18  208   21  70.3  68.0 1024.1 14.2  1.010 -99.9 -99.99 -9.99
2019/09/14 15:24 EDT    0.44   0.60   16  203   21  70.2  68.0 1023.9 14.2  1.010 -99.9 -99.99 -9.99
2019/09/14 15:30 EDT    0.49   0.63   14  197   22  69.6  67.8 1023.9 14.2  1.010 -99.9 -99.99 -9.99
2019/09/14 15:36 EDT    0.53   0.69   15  196   17  69.3  68.0 1024.0 14.2  1.010 -99.9 -99.99 -9.99
2019/09/14 15:42 EDT    0.58   0.73   15  198   21  69.1  68.0 1024.0 14.2  1.010 -99.9 -99.99 -9.99
2019/09/14 15:48 EDT    0.63   0.76   14  191   16  68.2  67.8 1023.9 14.2  1.010 -99.9 -99.99 -9.99
2019/09/14 15:54 EDT    0.68   0.79   16  185   17  68.2  68.0 1023.9 14.2  1.010 -99.9 -99.99 -9.99
2019/09/14 16:00 EDT    0.73   0.87   15  185   17  68.2  67.8 1023.8 14.2  1.010 -99.9 -99.99 -9.99
2019/09/14 16:06 EDT    0.78   0.90   15  181   18  68.4  67.8 1023.7 14.2  1.010 -99.9 -99.99 -9.99
2019/09/14 16:12 EDT    0.83   0.97   14  191   19  68.4  68.0 1023.6 14.2  1.010 -99.9 -99.99 -9.99
2019/09/14 16:18 EDT    0.89   1.04   16  194   19  68.9  67.8 1023.6 14.2  1.010 -99.9 -99.99 -9.99
2019/09/14 16:24 EDT    0.95   1.10   12  195   17  68.9  67.8 1023.5 14.2  1.010 -99.9 -99.99 -9.99
2019/09/14 16:30 EDT    1.01   1.16   13  195   16  69.1  67.8 1023.4 14.2  1.010 -99.9 -99.99 -9.99
2019/09/14 16:36 EDT    1.07   1.22   16  193   18  69.4  67.8 1023.4 14.2  1.010 -99.9 -99.99 -9.99
2019/09/14 16:42 EDT    1.13   1.29   13  192   19  69.1  67.8 1023.4 14.1  1.010 -99.9 -99.99 -9.99
2019/09/14 16:48 EDT    1.19   1.35   14  188   15  68.7  67.8 1023.3 14.1  1.010 -99.9 -99.99 -9.99
2019/09/14 16:54 EDT    1.26   1.39   14  196   17  69.1  68.0 1023.3 14.1  1.010 -99.9 -99.99 -9.99
2019/09/14 17:00 EDT    1.33   1.47   15  202   18  69.6  67.8 1023.3 14.1  1.010 -99.9 -99.99 -9.99
2019/09/14 17:06 EDT    1.40   1.57   15  201   19  69.8  67.8 1023.2 14.2  1.010 -99.9 -99.99 -9.99
2019/09/14 17:12 EDT    1.47   1.65   17  201   20  70.0  68.0 1023.1 14.1  1.010 -99.9 -99.99 -9.99
2019/09/14 17:18 EDT    1.54   1.71   15  201   17  70.0  68.0 1023.1 14.1  1.010 -99.9 -99.99 -9.99
2019/09/14 17:24 EDT    1.61   1.79   15  204   19  69.8  68.0 1023.0 14.1  1.010 -99.9 -99.99 -9.99
2019/09/14 17:30 EDT    1.69   1.90   15  199   18  70.0  68.0 1023.1 14.1  1.010 -99.9 -99.99 -9.99
2019/09/14 17:36 EDT    1.77   2.00   12  197   15  69.6  67.8 1023.0 14.1  1.010 -99.9 -99.99 -9.99
2019/09/14 17:42 EDT    1.85   2.05   12  197   14  69.4  68.0 1022.9 14.1  1.010 -99.9 -99.99 -9.99
2019/09/14 17:48 EDT    1.93   2.17   12  200   16  70.0  68.0 1022.9 14.1  1.010 -99.9 -99.99 -9.99
2019/09/14 17:54 EDT    2.01   2.26   14  203   16  70.2  68.0 1022.9 14.1  1.010 -99.9 -99.99 -9.99
2019/09/14 18:00 EDT    2.10   2.34   13  194   16  69.8  68.0 1023.0 14.1  1.010 -99.9 -99.99 -9.99
2019/09/14 18:06 EDT    2.18   2.39   12  191   14  69.3  67.8 1022.9 14.1  1.010 -99.9 -99.99 -9.99
2019/09/14 18:12 EDT    2.27   2.51   11  195   14  69.1  67.8 1022.9 14.1  1.010 -99.9 -99.99 -9.99
2019/09/14 18:18 EDT    2.36   2.58   12  204   15  69.8  68.0 1022.8 14.1  1.010 -99.9 -99.99 -9.99
2019/09/14 18:24 EDT    2.44   2.64   12  201   14  69.8  68.0 1022.8 14.1  1.010 -99.9 -99.99 -9.99
2019/09/14 18:30 EDT    2.53   2.72   11  194   13  69.6  68.0 1022.7 14.1  1.010 -99.9 -99.99 -9.99
2019/09/14 18:36 EDT    2.62   2.82   12  191   14  69.1  68.0 1022.7 14.1  1.010 -99.9 -99.99 -9.99
2019/09/14 18:42 EDT    2.71   2.91   14  189   16  68.9  68.0 1022.6 14.1  1.010 -99.9 -99.99 -9.99
2019/09/14 18:48 EDT    2.80   3.00   13  192   15  69.1  68.0 1022.6 14.1  1.010 -99.9 -99.99 -9.99
2019/09/14 18:54 EDT    2.88   3.10   13  198   15  69.3  68.0 1022.7 14.0  1.010 -99.9 -99.99 -9.99
2019/09/14 19:00 EDT    2.97   3.18   11  195   14  69.1  68.0 1022.7 14.0  1.010 -99.9 -99.99 -9.99
2019/09/14 19:06 EDT    3.05   3.27   11  194   13  69.1  68.0 1022.7 14.1  1.010 -99.9 -99.99 -9.99
2019/09/14 19:12 EDT    3.14   3.34   12  192   17  69.1  68.0 1022.6 14.1  1.010 -99.9 -99.99 -9.99
2019/09/14 19:18 EDT    3.22   3.44   11  192   14  68.9  68.0 1022.6 14.1  1.010 -99.9 -99.99 -9.99
2019/09/14 19:24 EDT    3.29   3.51   10  191   13  68.9  68.2 1022.7 14.1  1.010 -99.9 -99.99 -9.99
2019/09/14 19:30 EDT    3.37   3.57    9  198   11  68.7  68.0 1022.7 14.1  1.010 -99.9 -99.99 -9.99
2019/09/14 19:36 EDT    3.44   3.64    9  201   11  68.7  68.2 1022.7 14.1  1.010 -99.9 -99.99 -9.99
2019/09/14 19:42 EDT    3.51   3.72   10  207   12  69.3  68.0 1022.7 14.1  1.010 -99.9 -99.99 -9.99
2019/09/14 19:48 EDT    3.58   3.78   10  207   13  69.4  68.2 1022.6 14.1  1.010 -99.9 -99.99 -9.99
2019/09/14 19:54 EDT    3.64   3.80   11  198   12  69.3  68.2 1022.6 14.2  1.010 -99.9 -99.99 -9.99
2019/09/14 20:00 EDT    3.69   3.87   12  202   15  69.4  68.2 1022.6 14.3  1.010 -99.9 -99.99 -9.99
2019/09/14 20:06 EDT    3.75   3.91   11  203   14  69.4  68.0 1022.7 14.2  1.010 -99.9 -99.99 -9.99
2019/09/14 20:12 EDT    3.80   3.94   11  213   14  69.3  68.0 1022.7 14.3  1.010 -99.9 -99.99 -9.99
2019/09/14 20:18 EDT    3.84   4.00   13  208   15  68.9  68.0 1022.6 14.2  1.010 -99.9 -99.99 -9.99
2019/09/14 20:24 EDT    3.88   4.03   11  205   14  68.9  68.2 1022.7 14.2  1.010 -99.9 -99.99 -9.99
2019/09/14 20:30 EDT    3.91   4.03   10  202   12  69.1  68.2 1022.6 14.2  1.010 -99.9 -99.99 -9.99
2019/09/14 20:36 EDT    3.94   4.05   10  200   11  68.9  68.2 1022.6 14.3  1.010 -99.9 -99.99 -9.99
2019/09/14 20:42 EDT    3.96   4.10   10  203   12  68.9  68.2 1022.6 14.3  1.010 -99.9 -99.99 -9.99
2019/09/14 20:48 EDT    3.98   4.12   10  202   11  68.9  68.2 1022.6 14.2  1.010 -99.9 -99.99 -9.99
2019/09/14 20:54 EDT    3.99   4.09   10  202   11  68.9  68.2 1022.5 14.1  1.010 -99.9 -99.99 -9.99
2019/09/14 21:00 EDT    3.99   4.10   10  201   12  68.9  68.0 1022.5 14.1  1.010 -99.9 -99.99 -9.99
2019/09/14 21:06 EDT    3.99   4.13   10  197   12  68.9  68.0 1022.5 14.0  1.010 -99.9 -99.99 -9.99
2019/09/14 21:12 EDT    3.99   4.12   10  200   12  68.9  68.0 1022.5 14.2  1.010 -99.9 -99.99 -9.99
2019/09/14 21:18 EDT    3.97   4.09   10  206   12  69.1  68.0 1022.4 14.2  1.010 -99.9 -99.99 -9.99
2019/09/14 21:24 EDT    3.96   4.11   11  205   13  69.3  68.0 1022.5 14.2  1.010 -99.9 -99.99 -9.99
2019/09/14 21:30 EDT    3.93   4.09   10  212   13  69.3  68.0 1022.5 14.2  1.010 -99.9 -99.99 -9.99
2019/09/14 21:36 EDT    3.90   4.00   10  214   12  69.3  68.0 1022.4 14.3  1.010 -99.9 -99.99 -9.99
2019/09/14 21:42 EDT    3.87   3.97   11  213   12  69.3  68.0 1022.4 14.3  1.010 -99.9 -99.99 -9.99
2019/09/14 21:48 EDT    3.82   3.96   11  218   12  69.3  68.0 1022.5 14.2  1.010 -99.9 -99.99 -9.99
2019/09/14 21:54 EDT    3.78   3.92   10  221   11  69.3  68.0 1022.4 14.2  1.010 -99.9 -99.99 -9.99
2019/09/14 22:00 EDT    3.72   3.87   11  226   14  69.4  68.0 1022.4 14.2  1.010 -99.9 -99.99 -9.99
2019/09/14 22:06 EDT    3.66   3.82   11  225   13  69.3  68.0 1022.3 14.2  1.010 -99.9 -99.99 -9.99
2019/09/14 22:12 EDT    3.60   3.78   12  220   14  69.4  68.0 1022.3 14.2  1.010 -99.9 -99.99 -9.99
2019/09/14 22:18 EDT    3.53   3.69   12  221   15  69.4  68.0 1022.3 14.2  1.010 -99.9 -99.99 -9.99
2019/09/14 22:24 EDT    3.46   3.64   11  224   14  69.4  68.0 1022.3 14.2  1.010 -99.9 -99.99 -9.99
2019/09/14 22:30 EDT    3.38   3.58   11  214   13  69.4  68.0 1022.1 14.2  1.010 -99.9 -99.99 -9.99
2019/09/14 22:36 EDT    3.30   3.50   11  221   15  69.4  68.0 1022.1 14.2  1.010 -99.9 -99.99 -9.99
2019/09/14 22:42 EDT    3.21   3.39   11  220   14  69.4  68.0 1022.0 14.2  1.010 -99.9 -99.99 -9.99
2019/09/14 22:48 EDT    3.12   3.33   12  221   15  69.6  68.0 1021.9 14.3  1.010 -99.9 -99.99 -9.99
2019/09/14 22:54 EDT    3.02   3.22   12  217   14  69.6  68.0 1021.8 14.3  1.010 -99.9 -99.99 -9.99
2019/09/14 23:00 EDT    2.92   3.13   12  216   14  69.4  68.0 1021.9 14.2  1.010 -99.9 -99.99 -9.99
2019/09/14 23:06 EDT    2.82   3.02   13  218   15  69.3  68.0 1021.9 14.2  1.010 -99.9 -99.99 -9.99
2019/09/14 23:12 EDT    2.71   2.94   11  218   15  69.3  68.0 1021.7 14.2  1.010 -99.9 -99.99 -9.99
2019/09/14 23:18 EDT    2.61   2.84   11  218   14  69.1  68.0 1021.7 14.2  1.010 -99.9 -99.99 -9.99
2019/09/14 23:24 EDT    2.49   2.73   12  216   14  69.3  68.0 1021.7 14.1  1.010 -99.9 -99.99 -9.99
2019/09/14 23:30 EDT    2.38   2.65   13  220   16  68.9  68.0 1021.8 14.1  1.010 -99.9 -99.99 -9.99
2019/09/14 23:36 EDT    2.27   2.54   11  218   13  68.5  68.0 1021.7 14.0  1.010 -99.9 -99.99 -9.99
2019/09/14 23:42 EDT    2.15   2.43   10  215   13  68.4  68.0 1021.6 13.9  1.010 -99.9 -99.99 -9.99
2019/09/14 23:48 EDT    2.04   2.30   11  216   13  68.5  68.0 1021.5 13.9  1.010 -99.9 -99.99 -9.99
2019/09/14 23:54 EDT    1.92   2.18   11  215   13  68.5  68.0 1021.5 14.0  1.010 -99.9 -99.99 -9.99
2019/09/15 00:00 EDT    1.81   2.07   12  216   14  68.7  68.0 1021.5 14.0  1.010 -99.9 -99.99 -9.99
2019/09/15 00:06 EDT    1.69   1.96   13  216   15  68.5  68.0 1021.5 14.0  1.010 -99.9 -99.99 -9.99
2019/09/15 00:12 EDT    1.58   1.84   12  219   15  68.5  68.0 1021.5 14.0  1.010 -99.9 -99.99 -9.99
2019/09/15 00:18 EDT    1.47   1.74   12  218   13  68.5  68.0 1021.4 14.0  1.010 -99.9 -99.99 -9.99
2019/09/15 00:24 EDT    1.36   1.62   12  219   13  68.4  68.0 1021.3 14.0  1.010 -99.9 -99.99 -9.99
2019/09/15 00:30 EDT    1.25   1.51   11  219   14  68.4  68.0 1021.2 14.0  1.010 -99.9 -99.99 -9.99
2019/09/15 00:36 EDT    1.14   1.40   12  217   14  68.4  68.0 1021.2 14.0  1.010 -99.9 -99.99 -9.99
2019/09/15 00:42 EDT    1.04   1.32   13  222   15  68.5  68.0 1021.2 13.9  1.010 -99.9 -99.99 -9.99
2019/09/15 00:48 EDT    0.95   1.26   13  223   15  68.5  68.0 1021.3 14.0  1.010 -99.9 -99.99 -9.99
2019/09/15 00:54 EDT    0.85   1.14   14  226   18  68.7  68.0 1021.3 13.9  1.010 -99.9 -99.99 -9.99
2019/09/15 01:00 EDT    0.76   1.07   15  230   17  68.7  68.0 1021.3 13.9  1.010 -99.9 -99.99 -9.99
2019/09/15 01:06 EDT    0.68   1.01   13  228   15  68.7  68.0 1021.3 13.9  1.010 -99.9 -99.99 -9.99
2019/09/15 01:12 EDT    0.60   0.90   13  224   15  68.5  68.0 1021.3 13.9  1.010 -99.9 -99.99 -9.99
2019/09/15 01:18 EDT    0.52   0.80   12  220   15  68.5  68.0 1021.3 13.9  1.010 -99.9 -99.99 -9.99
2019/09/15 01:24 EDT    0.46   0.74   11  224   14  68.5  68.0 1021.3 13.9  1.010 -99.9 -99.99 -9.99
2019/09/15 01:30 EDT    0.39   0.68   11  221   12  68.5  68.0 1021.2 13.9  1.010 -99.9 -99.99 -9.99
2019/09/15 01:36 EDT    0.34   0.59    9  219   12  68.5  68.0 1021.1 13.9  1.010 -99.9 -99.99 -9.99
2019/09/15 01:42 EDT    0.28   0.50   10  223   11  68.5  68.0 1021.0 13.9  1.010 -99.9 -99.99 -9.99
2019/09/15 01:48 EDT    0.24   0.49   10  221   14  68.5  68.0 1021.0 13.9  1.010 -99.9 -99.99 -9.99
2019/09/15 01:54 EDT    0.20   0.47   10  224   12  68.5  68.0 1021.0 13.9  1.010 -99.9 -99.99 -9.99
2019/09/15 02:00 EDT    0.17   0.41   10  227   12  68.7  68.0 1020.9 14.0  1.010 -99.9 -99.99 -9.99
2019/09/15 02:06 EDT    0.14   0.38    9  230   12  68.5  68.0 1020.9 14.0  1.010 -99.9 -99.99 -9.99
2019/09/15 02:12 EDT    0.12   0.38    8  239   10  68.5  68.0 1020.9 13.9  1.010 -99.9 -99.99 -9.99
2019/09/15 02:18 EDT    0.10   0.38    8  233    9  68.7  68.0 1020.9 14.0  1.010 -99.9 -99.99 -9.99
2019/09/15 02:24 EDT    0.09   0.36    8  234   10  68.7  68.0 1020.9 14.0  1.010 -99.9 -99.99 -9.99
2019/09/15 02:30 EDT    0.09   0.34    8  228    9  68.7  68.0 1020.8 14.0  1.010 -99.9 -99.99 -9.99
2019/09/15 02:36 EDT    0.09   0.37    9  231   10  68.7  68.0 1020.8 14.0  1.010 -99.9 -99.99 -9.99
2019/09/15 02:42 EDT    0.10   0.39    6  236    9  68.7  68.0 1020.8 14.0  1.010 -99.9 -99.99 -9.99
2019/09/15 02:48 EDT    0.11   0.39    7  232    7  68.7  68.2 1020.8 13.9  1.010 -99.9 -99.99 -9.99
2019/09/15 02:54 EDT    0.12   0.42    7  229    8  68.7  68.2 1020.7 13.9  1.010 -99.9 -99.99 -9.99
2019/09/15 03:00 EDT    0.14   0.45    6  234    8  68.7  68.0 1020.7 14.0  1.010 -99.9 -99.99 -9.99
2019/09/15 03:06 EDT    0.17   0.46    6  235    8  68.7  68.0 1020.7 14.0  1.010 -99.9 -99.99 -9.99
2019/09/15 03:12 EDT    0.19   0.48    6  233    7  68.7  68.0 1020.6 14.0  1.010 -99.9 -99.99 -9.99
2019/09/15 03:18 EDT    0.23   0.52    5  239    7  68.7  68.0 1020.6 14.0  1.010 -99.9 -99.99 -9.99
2019/09/15 03:24 EDT    0.26   0.55    5  232    6  68.5  68.0 1020.5 14.0  1.010 -99.9 -99.99 -9.99
2019/09/15 03:30 EDT    0.30   0.58    6  225    6  68.5  68.0 1020.4 14.0  1.010 -99.9 -99.99 -9.99
2019/09/15 03:36 EDT    0.34   0.61    6  226    6  68.5  68.0 1020.4 14.0  1.010 -99.9 -99.99 -9.99
2019/09/15 03:42 EDT    0.38   0.67    6  221    7  68.5  68.0 1020.3 14.0  1.010 -99.9 -99.99 -9.99
2019/09/15 03:48 EDT    0.43   0.71    7  220    7  68.5  68.0 1020.3 13.9  1.010 -99.9 -99.99 -9.99
2019/09/15 03:54 EDT    0.47   0.72    5  220    7  68.5  68.0 1020.3 14.0  1.010 -99.9 -99.99 -9.99
2019/09/15 04:00 EDT    0.52   0.76    8  228    9  68.5  68.0 1020.3 14.0  1.010 -99.9 -99.99 -9.99
2019/09/15 04:06 EDT    0.58   0.82    7  233    8  68.5  68.0 1020.3 13.9  1.010 -99.9 -99.99 -9.99
2019/09/15 04:12 EDT    0.63   0.88    7  232    8  68.5  68.0 1020.3 13.9  1.010 -99.9 -99.99 -9.99
2019/09/15 04:18 EDT    0.68   0.89    6  239    8  68.4  68.0 1020.3 13.9  1.010 -99.9 -99.99 -9.99
2019/09/15 04:24 EDT    0.74   0.94    6  244    7  68.4  68.0 1020.3 13.4  1.009 -99.9 -99.99 -9.99
2019/09/15 04:30 EDT    0.80   1.01    6  248    6  68.4  68.0 1020.3 13.9  1.010 -99.9 -99.99 -9.99
2019/09/15 04:36 EDT    0.86   1.07    5  251    6  68.2  68.0 1020.3 13.9  1.010 -99.9 -99.99 -9.99
2019/09/15 04:42 EDT    0.92   1.12    5  251    6  68.2  68.0 1020.2 13.9  1.010 -99.9 -99.99 -9.99
2019/09/15 04:48 EDT    0.98   1.18    4  255    5  68.0  68.0 1020.3 13.9  1.010 -99.9 -99.99 -9.99
2019/09/15 04:54 EDT    1.05   1.27    4  257    5  68.0  68.0 1020.4 13.9  1.010 -99.9 -99.99 -9.99
2019/09/15 05:00 EDT    1.11   1.33    4  262    5  68.0  68.0 1020.5 14.0  1.010 -99.9 -99.99 -9.99
2019/09/15 05:06 EDT    1.18   1.37    4  257    5  67.8  68.0 1020.4 14.0  1.010 -99.9 -99.99 -9.99
2019/09/15 05:12 EDT    1.25   1.45    4  261    5  67.8  68.0 1020.5 14.0  1.010 -99.9 -99.99 -9.99
2019/09/15 05:18 EDT    1.32   1.53    4  258    5  67.8  68.0 1020.6 14.0  1.010 -99.9 -99.99 -9.99
2019/09/15 05:24 EDT    1.39   1.58    4  258    5  67.6  68.0 1020.7 14.0  1.010 -99.9 -99.99 -9.99
2019/09/15 05:30 EDT    1.47   1.62    3  268    5  67.6  68.0 1020.8 14.0  1.010 -99.9 -99.99 -9.99
2019/09/15 05:36 EDT    1.54   1.71    3  272    5  67.5  68.0 1020.9 14.0  1.010 -99.9 -99.99 -9.99
2019/09/15 05:42 EDT    1.62   1.80    3  281    5  67.5  68.0 1020.9 14.0  1.010 -99.9 -99.99 -9.99
2019/09/15 05:48 EDT    1.70   1.85    3  276    5  67.3  68.0 1020.9 14.0  1.010 -99.9 -99.99 -9.99
2019/09/15 05:54 EDT    1.78   1.89    3  270    4  67.3  68.0 1021.0 14.0  1.010 -99.9 -99.99 -9.99
2019/09/15 06:00 EDT    1.86   1.98    3  268    5  67.3  68.0 1021.0 14.0  1.010 -99.9 -99.99 -9.99
2019/09/15 06:06 EDT    1.94   2.08    3  264    5  67.1  68.0 1021.0 14.0  1.010 -99.9 -99.99 -9.99
2019/09/15 06:12 EDT    2.03   2.17    4  260    4  67.1  68.0 1021.0 14.0  1.010 -99.9 -99.99 -9.99
2019/09/15 06:18 EDT    2.11   2.25    3  262    4  67.1  68.0 1020.9 14.0  1.010 -99.9 -99.99 -9.99
2019/09/15 06:24 EDT    2.20   2.32    4  262    6  66.9  68.0 1020.8 14.0  1.010 -99.9 -99.99 -9.99
2019/09/15 06:30 EDT    2.29   2.42    5  264    6  66.9  68.0 1020.8 14.0  1.010 -99.9 -99.99 -9.99
2019/09/15 06:36 EDT    2.37   2.51    3  270    5  66.7  68.0 1020.8 14.0  1.010 -99.9 -99.99 -9.99
2019/09/15 06:42 EDT    2.46   2.60    4  268    4  66.7  68.0 1020.8 14.0  1.010 -99.9 -99.99 -9.99
2019/09/15 06:48 EDT    2.55   2.72    3  275    4  66.6  68.0 1020.9 14.0  1.010 -99.9 -99.99 -9.99
2019/09/15 06:54 EDT    2.64   2.80    4  268    6  66.7  68.0 1021.0 14.0  1.010 -99.9 -99.99 -9.99
2019/09/15 07:00 EDT    2.73   2.86    4  263    6  66.7  68.0 1021.0 13.9  1.010 -99.9 -99.99 -9.99
2019/09/15 07:06 EDT    2.82   2.95    5  261    5  66.7  68.0 1021.0 14.0  1.010 -99.9 -99.99 -9.99
2019/09/15 07:12 EDT    2.91   3.05    3  265    5  66.7  68.0 1021.0 14.0  1.010 -99.9 -99.99 -9.99
2019/09/15 07:18 EDT    2.99   3.14    3  264    4  66.7  68.0 1021.0 14.0  1.010 -99.9 -99.99 -9.99
2019/09/15 07:24 EDT    3.08   3.25    4  258    5  66.6  68.0 1020.9 14.0  1.010 -99.9 -99.99 -9.99
2019/09/15 07:30 EDT    3.16   3.32    4  266    5  66.7  68.0 1021.0 14.0  1.010 -99.9 -99.99 -9.99
2019/09/15 07:36 EDT    3.24   3.38    3  269    5  66.9  68.0 1021.0 14.0  1.010 -99.9 -99.99 -9.99
2019/09/15 07:42 EDT    3.32   3.42    4  277    6  67.1  68.0 1021.0 14.1  1.010 -99.9 -99.99 -9.99
2019/09/15 07:48 EDT    3.40   3.49    4  287    7  67.5  68.0 1021.0 14.1  1.010 -99.9 -99.99 -9.99
2019/09/15 07:54 EDT    3.47   3.57    4  278    7  67.6  68.0 1021.1 14.2  1.010 -99.9 -99.99 -9.99
2019/09/15 08:00 EDT    3.54   3.64    5  277    7  67.6  68.0 1021.1 14.1  1.010 -99.9 -99.99 -9.99
2019/09/15 08:06 EDT    3.60   3.73    4  284    6  67.8  68.0 1021.1 14.2  1.010 -99.9 -99.99 -9.99
2019/09/15 08:12 EDT    3.67   3.80    5  295    8  68.0  68.0 1021.1 14.2  1.010 -99.9 -99.99 -9.99
2019/09/15 08:18 EDT    3.72   3.85    5  297    8  68.5  68.0 1021.1 14.2  1.010 -99.9 -99.99 -9.99
2019/09/15 08:24 EDT    3.78   3.91    5  299    8  68.7  68.0 1021.0 14.1  1.010 -99.9 -99.99 -9.99
2019/09/15 08:30 EDT    3.83   3.96    4  308    7  69.1  68.0 1021.0 14.0  1.010 -99.9 -99.99 -9.99
2019/09/15 08:36 EDT    3.87   4.00    5  303    7  69.1  68.0 1021.0 13.9  1.010 -99.9 -99.99 -9.99
2019/09/15 08:42 EDT    3.91   4.04    4  320    7  69.3  68.0 1021.0 13.9  1.010 -99.9 -99.99 -9.99
2019/09/15 08:48 EDT    3.94   4.08    4  347    6  69.3  68.0 1021.0 13.9  1.010 -99.9 -99.99 -9.99
2019/09/15 08:54 EDT    3.97   4.14    3  322    6  69.6  68.0 1021.0 13.8  1.010 -99.9 -99.99 -9.99
2019/09/15 09:00 EDT    3.99   4.16    5  320    7  69.8  68.0 1021.0 13.8  1.010 -99.9 -99.99 -9.99
2019/09/15 09:06 EDT    4.01   4.17    6  325    7  69.6  68.2 1021.1 13.8  1.010 -99.9 -99.99 -9.99
2019/09/15 09:12 EDT    4.02   4.20    4  320    6  69.8  68.2 1021.1 13.8  1.010 -99.9 -99.99 -9.99
2019/09/15 09:18 EDT    4.03   4.21    5  335    7  70.0  68.0 1021.1 13.8  1.010 -99.9 -99.99 -9.99
2019/09/15 09:24 EDT    4.03   4.20    5  325    7  70.2  68.0 1021.1 13.9  1.010 -99.9 -99.99 -9.99
2019/09/15 09:30 EDT    4.02   4.19    4  307    8  70.3  68.2 1021.1 13.8  1.010 -99.9 -99.99 -9.99
2019/09/15 09:36 EDT    4.01   4.20    5  314    8  70.3  68.2 1021.1 14.0  1.010 -99.9 -99.99 -9.99
2019/09/15 09:42 EDT    3.99   4.17    6  326    8  70.2  68.2 1021.0 14.1  1.010 -99.9 -99.99 -9.99
2019/09/15 09:48 EDT    3.97   4.17    6  329    7  70.5  68.0 1021.1 14.2  1.010 -99.9 -99.99 -9.99
2019/09/15 09:54 EDT    3.94   4.12    4  326    7  70.9  68.0 1021.1 14.2  1.010 -99.9 -99.99 -9.99
2019/09/15 10:00 EDT    3.91   4.11    5  312    7  71.1  68.2 1021.0 14.2  1.010 -99.9 -99.99 -9.99
2019/09/15 10:06 EDT    3.87   4.06    4  324    6  71.4  68.0 1021.0 14.2  1.010 -99.9 -99.99 -9.99
2019/09/15 10:12 EDT    3.82   4.03    3  340    4  71.6  68.0 1020.9 14.2  1.010 -99.9 -99.99 -9.99
2019/09/15 10:18 EDT    3.77   3.97    4  293    7  72.0  68.2 1020.8 14.2  1.010 -99.9 -99.99 -9.99
2019/09/15 10:24 EDT    3.71   3.92    4  266    7  71.8  68.2 1020.6 14.1  1.010 -99.9 -99.99 -9.99
2019/09/15 10:30 EDT    3.65   3.89    4  261    6  71.8  68.2 1020.6 14.1  1.010 -99.9 -99.99 -9.99
2019/09/15 10:36 EDT    3.59   3.81    2  264    5  72.3  68.2 1020.6 14.1  1.010 -99.9 -99.99 -9.99
2019/09/15 10:42 EDT    3.52   3.76    3  298    4  72.3  68.2 1020.5 14.1  1.010 -99.9 -99.99 -9.99
2019/09/15 10:48 EDT    3.44   3.69    3  232    5  71.6  68.0 1020.5 14.2  1.010 -99.9 -99.99 -9.99
2019/09/15 10:54 EDT    3.36   3.64    1  164    3  72.5  68.0 1020.4 14.1  1.010 -99.9 -99.99 -9.99
2019/09/15 11:00 EDT    3.28   3.57    3   85    4  71.4  68.0 1020.4 14.1  1.010 -99.9 -99.99 -9.99
2019/09/15 11:06 EDT    3.19   3.49    3  100    4  70.7  68.0 1020.4 14.1  1.010 -99.9 -99.99 -9.99
2019/09/15 11:12 EDT    3.09   3.39    3  101    4  70.2  68.0 1020.4 14.1  1.010 -99.9 -99.99 -9.99
2019/09/15 11:18 EDT    3.00   3.27    2   68    4  70.7  68.0 1020.4 14.2  1.010 -99.9 -99.99 -9.99
2019/09/15 11:24 EDT    2.90   3.19    4   96    4  70.7  68.0 1020.3 14.2  1.010 -99.9 -99.99 -9.99
2019/09/15 11:30 EDT    2.80   3.08    3  103    4  70.9  68.0 1020.3 14.1  1.010 -99.9 -99.99 -9.99
2019/09/15 11:36 EDT    2.69   2.95    2   75    4  70.7  68.2 1020.2 14.1  1.010 -99.9 -99.99 -9.99
2019/09/15 11:42 EDT    2.59   2.84    1   94    3  72.1  68.2 1020.3 14.1  1.010 -99.9 -99.99 -9.99
2019/09/15 11:48 EDT    2.48   2.76    3  148    3  71.8  68.0 1020.2 14.1  1.010 -99.9 -99.99 -9.99
2019/09/15 11:54 EDT    2.37   2.64    3  160    5  72.1  68.0 1020.2 14.1  1.010 -99.9 -99.99 -9.99
2019/09/15 12:00 EDT    2.26   2.48    7  254    8  73.2  68.0 1020.1 14.1  1.010 -99.9 -99.99 -9.99
2019/09/15 12:06 EDT    2.14   2.38    5  261   10  74.1  68.0 1020.1 14.1  1.010 -99.9 -99.99 -9.99
2019/09/15 12:12 EDT    2.03   2.29    6  253    9  73.8  68.0 1020.0 14.1  1.010 -99.9 -99.99 -9.99
2019/09/15 12:18 EDT    1.92   2.15    6  251   10  74.1  68.0 1020.0 14.1  1.010 -99.9 -99.99 -9.99
2019/09/15 12:24 EDT    1.81   2.00    6  234    8  73.8  68.2 1019.9 14.1  1.010 -99.9 -99.99 -9.99
2019/09/15 12:30 EDT    1.70   1.89    7  257    9  74.3  68.5 1019.8 14.0  1.010 -99.9 -99.99 -9.99
2019/09/15 12:36 EDT    1.59   1.81    6  260   10  74.7  68.9 1019.7 14.0  1.010 -99.9 -99.99 -9.99
2019/09/15 12:42 EDT    1.48   1.68    9  252   11  74.3  69.1 1019.6 13.9  1.010 -99.9 -99.99 -9.99
2019/09/15 12:48 EDT    1.37   1.56    7  247   11  74.3  69.1 1019.5 14.0  1.010 -99.9 -99.99 -9.99
2019/09/15 12:54 EDT    1.27   1.48    5  238   10  74.7  69.3 1019.5 14.0  1.010 -99.9 -99.99 -9.99
2019/09/15 13:00 EDT    1.17   1.36    6  260    8  74.8  69.4 1019.4 13.9  1.009 -99.9 -99.99 -9.99
2019/09/15 13:06 EDT    1.07   1.24    5  247    7  74.8  69.1 1019.4 13.9  1.010 -99.9 -99.99 -9.99
2019/09/15 13:12 EDT    0.98   1.14    9  248   11  74.3  69.3 1019.3 13.9  1.009 -99.9 -99.99 -9.99
2019/09/15 13:18 EDT    0.89   1.08    8  245   12  74.5  69.3 1019.3 13.9  1.009 -99.9 -99.99 -9.99
2019/09/15 13:24 EDT    0.80   1.00    9  255   12  75.4  69.3 1019.2 13.9  1.009 -99.9 -99.99 -9.99
2019/09/15 13:30 EDT    0.72   0.92    9  255   11  74.7  69.3 1019.0 13.8  1.009 -99.9 -99.99 -9.99
2019/09/15 13:36 EDT    0.64   0.83    4  251    8  74.8  69.3 1018.9 13.8  1.009 -99.9 -99.99 -9.99
2019/09/15 13:42 EDT    0.57   0.76    8  242   12  74.7  69.1 1018.7 13.9  1.009 -99.9 -99.99 -9.99
2019/09/15 13:48 EDT    0.51   0.67    5  267    8  76.1  69.1 1018.7 13.9  1.010 -99.9 -99.99 -9.99
2019/09/15 13:54 EDT    0.45   0.59    4  251   11  75.4  69.1 1018.6 13.9  1.009 -99.9 -99.99 -9.99
2019/09/15 14:00 EDT    0.39   0.53    9  255   13  75.6  69.3 1018.6 13.9  1.009 -99.9 -99.99 -9.99
2019/09/15 14:06 EDT    0.35   0.48   10  255   13  75.4  69.3 1018.5 13.8  1.009 -99.9 -99.99 -9.99
2019/09/15 14:12 EDT    0.30   0.46    9  252   13  75.2  69.1 1018.4 13.9  1.009 -99.9 -99.99 -9.99
2019/09/15 14:18 EDT    0.27   0.44   10  262   14  76.1  69.1 1018.4 13.9  1.009 -99.9 -99.99 -9.99
2019/09/15 14:24 EDT    0.24   0.43    7  277   10  77.4  69.1 1018.4 13.9  1.009 -99.9 -99.99 -9.99
2019/09/15 14:30 EDT    0.21   0.42    8  259   12  76.5  69.1 1018.3 13.8  1.009 -99.9 -99.99 -9.99
2019/09/15 14:36 EDT    0.19   0.40    7  262   11  76.6  69.1 1018.2 13.8  1.009 -99.9 -99.99 -9.99
2019/09/15 14:42 EDT    0.18   0.42    4  291    9  77.7  68.9 1018.2 13.8  1.009 -99.9 -99.99 -9.99
2019/09/15 14:48 EDT    0.17   0.45    6  262   11  76.6  69.1 1018.2 13.8  1.009 -99.9 -99.99 -9.99
2019/09/15 14:54 EDT    0.17   0.46    6  271    9  77.4  69.1 1018.1 13.7  1.009 -99.9 -99.99 -9.99
2019/09/15 15:00 EDT    0.17   0.47    7  276   14  77.7  68.9 1018.1 13.8  1.009 -99.9 -99.99 -9.99
2019/09/15 15:06 EDT    0.18   0.47   10  269   15  77.9  68.9 1017.9 13.7  1.009 -99.9 -99.99 -9.99
2019/09/15 15:12 EDT    0.19   0.48    8  274   10  78.3  68.9 1017.9 13.9  1.010 -99.9 -99.99 -9.99
2019/09/15 15:18 EDT    0.21   0.52    7  270   13  77.5  68.9 1017.7 13.9  1.010 -99.9 -99.99 -9.99
2019/09/15 15:24 EDT    0.23   0.55   10  269   14  77.9  68.9 1017.8 13.9  1.010 -99.9 -99.99 -9.99
2019/09/15 15:30 EDT    0.25   0.56    8  268   13  77.7  68.7 1017.8 13.9  1.010 -99.9 -99.99 -9.99
2019/09/15 15:36 EDT    0.28   0.60    7  278   11  78.3  68.9 1017.7 13.9  1.010 -99.9 -99.99 -9.99
2019/09/15 15:42 EDT    0.31   0.64    8  274   11  77.9  68.9 1017.7 13.9  1.010 -99.9 -99.99 -9.99
2019/09/15 15:48 EDT    0.35   0.70    4  278    9  78.4  68.9 1017.5 13.9  1.010 -99.9 -99.99 -9.99
2019/09/15 15:54 EDT    0.39   0.72    9  259   11  76.5  68.9 1017.6 13.9  1.010 -99.9 -99.99 -9.99
2019/09/15 16:00 EDT    0.43   0.77    8  253   11  76.1  68.9 1017.6 13.9  1.010 -99.9 -99.99 -9.99
2019/09/15 16:06 EDT    0.47   0.85    6  249    9  76.6  69.1 1017.6 13.8  1.009 -99.9 -99.99 -9.99
2019/09/15 16:12 EDT    0.51   0.87    8  254   11  76.5  69.3 1017.5 13.8  1.009 -99.9 -99.99 -9.99
2019/09/15 16:18 EDT    0.56   0.91    9  259   12  77.5  69.3 1017.5 13.8  1.009 -99.9 -99.99 -9.99
2019/09/15 16:24 EDT    0.61   0.96    8  256   10  76.8  69.3 1017.6 13.9  1.009 -99.9 -99.99 -9.99
2019/09/15 16:30 EDT    0.66   1.03    7  285   10  78.4  69.6 1017.6 13.8  1.009 -99.9 -99.99 -9.99
2019/09/15 16:36 EDT    0.72   1.09    6  277    9  78.4  69.3 1017.7 13.9  1.009 -99.9 -99.99 -9.99
2019/09/15 16:42 EDT    0.77   1.14    7  262    9  77.9  69.4 1017.7 13.8  1.009 -99.9 -99.99 -9.99
2019/09/15 16:48 EDT    0.83   1.21    8  263   11  77.7  69.4 1017.7 13.8  1.009 -99.9 -99.99 -9.99
2019/09/15 16:54 EDT    0.89   1.29    9  260   12  76.8  69.3 1017.7 13.8  1.009 -99.9 -99.99 -9.99
2019/09/15 17:00 EDT    0.94   1.34    8  265   12  77.7  69.3 1017.6 13.8  1.009 -99.9 -99.99 -9.99
2019/09/15 17:06 EDT    1.01   1.42    7  261   12  77.4  69.3 1017.6 13.8  1.009 -99.9 -99.99 -9.99
2019/09/15 17:12 EDT    1.07   1.52    7  261   10  77.0  69.3 1017.6 13.8  1.009 -99.9 -99.99 -9.99
2019/09/15 17:18 EDT    1.13   1.59    7  254   10  76.5  69.3 1017.6 13.8  1.009 -99.9 -99.99 -9.99
2019/09/15 17:24 EDT    1.20   1.64    8  254   10  75.7  69.4 1017.6 13.8  1.009 -99.9 -99.99 -9.99
2019/09/15 17:30 EDT    1.26   1.69    7  257    9  75.9  69.4 1017.6 13.8  1.009 -99.9 -99.99 -9.99
2019/09/15 17:36 EDT    1.33   1.76    5  271   10  77.4  69.4 1017.6 13.8  1.009 -99.9 -99.99 -9.99
2019/09/15 17:42 EDT    1.40   1.82    6  263    8  76.8  69.4 1017.6 13.8  1.009 -99.9 -99.99 -9.99
2019/09/15 17:48 EDT    1.47   1.91    5  263    9  76.5  69.4 1017.7 13.8  1.009 -99.9 -99.99 -9.99
2019/09/15 17:54 EDT    1.54   2.00    6  274    8  76.5  69.4 1017.8 13.8  1.009 -99.9 -99.99 -9.99
2019/09/15 18:00 EDT    1.62   2.02    3  272    8  76.3  69.4 1017.8 13.8  1.009 -99.9 -99.99 -9.99
2019/09/15 18:06 EDT    1.69   2.09    5  248    5  75.0  69.4 1017.9 13.8  1.009 -99.9 -99.99 -9.99
2019/09/15 18:12 EDT    1.77   2.14    7  234    7  73.6  69.4 1017.9 13.8  1.009 -99.9 -99.99 -9.99
2019/09/15 18:18 EDT    1.85   2.22    6  237    8  73.0  69.4 1018.0 13.8  1.009 -99.9 -99.99 -9.99
2019/09/15 18:24 EDT    1.93   2.30    6  256   10  72.9  69.4 1018.1 13.8  1.009 -99.9 -99.99 -9.99
2019/09/15 18:30 EDT    2.01   2.38    8  253    9  72.7  69.4 1018.2 13.8  1.009 -99.9 -99.99 -9.99
2019/09/15 18:36 EDT    2.09   2.45    7  250    9  72.5  69.3 1018.1 13.9  1.009 -99.9 -99.99 -9.99
2019/09/15 18:42 EDT    2.18   2.53    7  246    8  72.0  69.3 1018.1 13.8  1.009 -99.9 -99.99 -9.99
2019/09/15 18:48 EDT    2.26   2.62    7  252    8  72.0  69.3 1018.1 13.8  1.009 -99.9 -99.99 -9.99
2019/09/15 18:54 EDT    2.34   2.70    6  239   10  72.0  69.1 1018.0 13.7  1.009 -99.9 -99.99 -9.99
2019/09/15 19:00 EDT    2.43   2.81    8  231    8  71.6  69.3 1017.9 13.8  1.009 -99.9 -99.99 -9.99
2019/09/15 19:06 EDT    2.51   2.88    7  227    8  71.2  69.3 1017.8 13.8  1.009 -99.9 -99.99 -9.99
2019/09/15 19:12 EDT    2.60   2.94    6  223    7  70.9  69.3 1017.8 13.8  1.009 -99.9 -99.99 -9.99
2019/09/15 19:18 EDT    2.68   3.04    6  224    6  70.7  69.3 1017.8 13.9  1.009 -99.9 -99.99 -9.99
2019/09/15 19:24 EDT    2.77   3.11    5  234    6  70.5  69.3 1017.9 13.9  1.009 -99.9 -99.99 -9.99
2019/09/15 19:30 EDT    2.85   3.16    5  228    5  70.3  69.3 1017.8 13.8  1.009 -99.9 -99.99 -9.99
2019/09/15 19:36 EDT    2.94   3.24    6  229    6  69.8  69.3 1017.9 13.8  1.009 -99.9 -99.99 -9.99
2019/09/15 19:42 EDT    3.02   3.31    6  228    6  69.8  69.3 1017.9 13.8  1.009 -99.9 -99.99 -9.99
2019/09/15 19:48 EDT    3.10   3.35    5  234    6  69.8  69.3 1017.9 13.8  1.009 -99.9 -99.99 -9.99
2019/09/15 19:54 EDT    3.17   3.39    5  232    6  69.4  69.3 1017.8 13.8  1.009 -99.9 -99.99 -9.99
2019/09/15 20:00 EDT    3.25   3.48    4  244    6  69.4  69.3 1018.0 13.8  1.009 -99.9 -99.99 -9.99
2019/09/15 20:06 EDT    3.32   3.55    4  245    5  69.4  69.3 1018.0 13.8  1.009 -99.9 -99.99 -9.99
2019/09/15 20:12 EDT    3.39   3.60    4  229    5  69.3  69.3 1017.8 13.8  1.009 -99.9 -99.99 -9.99
2019/09/15 20:18 EDT    3.46   3.66    5  231    5  69.3  69.3 1017.8 13.9  1.009 -99.9 -99.99 -9.99
2019/09/15 20:24 EDT    3.52   3.71    6  233    6  69.1  69.1 1017.7 13.9  1.010 -99.9 -99.99 -9.99
2019/09/15 20:30 EDT    3.58   3.75    6  228    6  68.7  69.1 1017.7 13.9  1.010 -99.9 -99.99 -9.99
2019/09/15 20:36 EDT    3.63   3.81    6  222    6  68.5  68.7 1017.6 13.9  1.010 -99.9 -99.99 -9.99
2019/09/15 20:42 EDT    3.68   3.87    5  235    6  68.5  68.7 1017.8 14.0  1.010 -99.9 -99.99 -9.99
2019/09/15 20:48 EDT    3.73   3.92    6  245    7  68.7  68.9 1017.8 14.0  1.010 -99.9 -99.99 -9.99
2019/09/15 20:54 EDT    3.77   3.93    6  253    8  68.4  68.9 1017.8 14.0  1.010 -99.9 -99.99 -9.99
2019/09/15 21:00 EDT    3.80   3.98    6  255    6  68.2  68.9 1017.8 14.1  1.010 -99.9 -99.99 -9.99
2019/09/15 21:06 EDT    3.83   4.04    5  256    6  68.4  68.9 1017.7 14.1  1.010 -99.9 -99.99 -9.99
2019/09/15 21:12 EDT    3.86   4.06    5  254    6  68.2  68.7 1017.8 14.2  1.010 -99.9 -99.99 -9.99
2019/09/15 21:18 EDT    3.87   4.09    5  256    7  68.4  68.7 1017.8 14.2  1.010 -99.9 -99.99 -9.99
2019/09/15 21:24 EDT    3.89   4.10    6  259    6  68.2  68.7 1017.8 14.2  1.010 -99.9 -99.99 -9.99
2019/09/15 21:30 EDT    3.90   4.10    5  257    6  68.2  68.7 1017.8 14.2  1.010 -99.9 -99.99 -9.99
2019/09/15 21:36 EDT    3.90   4.09    5  253    6  68.2  68.7 1017.7 14.1  1.010 -99.9 -99.99 -9.99
2019/09/15 21:42 EDT    3.89   4.08    6  252    7  68.0  68.7 1017.6 14.1  1.010 -99.9 -99.99 -9.99
2019/09/15 21:48 EDT    3.88   4.09    7  255    8  67.8  68.7 1017.6 14.1  1.010 -99.9 -99.99 -9.99
2019/09/15 21:54 EDT    3.87   4.08    7  254    8  67.8  68.7 1017.5 14.0  1.010 -99.9 -99.99 -9.99
2019/09/15 22:00 EDT    3.85   4.06    6  258    8  67.8  68.7 1017.5 13.9  1.010 -99.9 -99.99 -9.99
2019/09/15 22:06 EDT    3.82   4.02    5  257    7  67.5  68.7 1017.5 13.9  1.010 -99.9 -99.99 -9.99
2019/09/15 22:12 EDT    3.79   3.99    6  258    7  67.5  68.5 1017.5 14.0  1.010 -99.9 -99.99 -9.99
2019/09/15 22:18 EDT    3.75   3.99    4  259    6  67.6  68.4 1017.5 14.1  1.010 -99.9 -99.99 -9.99
2019/09/15 22:24 EDT    3.71   3.95    3  260    5  67.8  68.4 1017.5 14.0  1.010 -99.9 -99.99 -9.99
2019/09/15 22:30 EDT    3.66   3.94    4  247    5  67.8  68.4 1017.5 14.0  1.010 -99.9 -99.99 -9.99
2019/09/15 22:36 EDT    3.61   3.91    4  244    4  67.5  68.4 1017.3 14.0  1.010 -99.9 -99.99 -9.99
2019/09/15 22:42 EDT    3.55   3.88    2  262    4  67.5  68.2 1017.3 14.0  1.010 -99.9 -99.99 -9.99
2019/09/15 22:48 EDT    3.48   3.82    2  261    3  67.3  68.2 1017.4 14.0  1.010 -99.9 -99.99 -9.99
2019/09/15 22:54 EDT    3.42   3.78    3  250    3  67.5  68.2 1017.4 13.9  1.010 -99.9 -99.99 -9.99
2019/09/15 23:00 EDT    3.34   3.71    4  244    4  67.3  68.2 1017.4 13.8  1.010 -99.9 -99.99 -9.99
2019/09/15 23:06 EDT    3.27   3.64    4  254    5  66.9  68.2 1017.4 13.9  1.010 -99.9 -99.99 -9.99
2019/09/15 23:12 EDT    3.18   3.57    4  257    5  66.7  68.0 1017.5 14.0  1.010 -99.9 -99.99 -9.99
2019/09/15 23:18 EDT    3.10   3.49    3  255    4  66.7  68.0 1017.4 14.1  1.010 -99.9 -99.99 -9.99
2019/09/15 23:24 EDT    3.01   3.42    4  237    5  66.6  68.2 1017.4 14.0  1.010 -99.9 -99.99 -9.99
2019/09/15 23:30 EDT    2.92   3.34    4  247    6  66.6  68.2 1017.5 14.1  1.010 -99.9 -99.99 -9.99
2019/09/15 23:36 EDT    2.82   3.25    4  234    5  66.4  68.0 1017.5 14.1  1.010 -99.9 -99.99 -9.99
2019/09/15 23:42 EDT    2.72   3.14    5  232    5  66.2  68.0 1017.5 14.2  1.010 -99.9 -99.99 -9.99
2019/09/15 23:48 EDT    2.62   3.03    5  225    6  66.0  67.8 1017.5 14.2  1.010 -99.9 -99.99 -9.99
2019/09/15 23:54 EDT    2.52   2.94    5  236    6  65.8  67.8 1017.5 14.2  1.010 -99.9 -99.99 -9.99
2019/09/16 00:00 EDT    2.41   2.83    4  237    5  66.2  67.8 1017.5 14.2  1.010 -99.9 -99.99 -9.99
2019/09/16 00:06 EDT    2.30   2.70    5  239    6  65.8  67.8 1017.4 14.1  1.010 -99.9 -99.99 -9.99
2019/09/16 00:12 EDT    2.20   2.58    5  242    6  66.0  67.8 1017.4 14.1  1.010 -99.9 -99.99 -9.99
2019/09/16 00:18 EDT    2.09   2.49    5  238    6  66.0  67.8 1017.4 14.0  1.010 -99.9 -99.99 -9.99
2019/09/16 00:24 EDT    1.98   2.39    5  233    6  65.7  67.8 1017.4 14.0  1.010 -99.9 -99.99 -9.99
2019/09/16 00:30 EDT    1.86   2.25    5  234    5  65.3  68.2 1017.5 14.0  1.010 -99.9 -99.99 -9.99
2019/09/16 00:36 EDT    1.75   2.16    4  237    5  65.3  68.2 1017.5 14.0  1.010 -99.9 -99.99 -9.99
2019/09/16 00:42 EDT    1.64   2.07    4  241    5  65.1  68.2 1017.5 13.9  1.010 -99.9 -99.99 -9.99
2019/09/16 00:48 EDT    1.54   1.95    5  236    5  64.8  68.0 1017.5 13.9  1.010 -99.9 -99.99 -9.99
2019/09/16 00:54 EDT    1.43   1.82    5  235    5  64.9  68.0 1017.4 14.0  1.010 -99.9 -99.99 -9.99
2019/09/16 01:00 EDT    1.32   1.72    4  233    5  65.1  67.6 1017.4 14.0  1.010 -99.9 -99.99 -9.99
2019/09/16 01:06 EDT    1.22   1.60    5  232    5  64.9  67.6 1017.3 14.0  1.010 -99.9 -99.99 -9.99
2019/09/16 01:12 EDT    1.12   1.48    5  234    6  64.9  68.2 1017.3 14.0  1.010 -99.9 -99.99 -9.99
2019/09/16 01:18 EDT    1.02   1.38    5  241    6  65.1  68.2 1017.3 14.0  1.010 -99.9 -99.99 -9.99
2019/09/16 01:24 EDT    0.93   1.29    6  245    7  64.9  68.2 1017.3 13.9  1.010 -99.9 -99.99 -9.99
2019/09/16 01:30 EDT    0.84   1.18    7  251    7  64.9  68.2 1017.2 13.9  1.010 -99.9 -99.99 -9.99
2019/09/16 01:36 EDT    0.75   1.07    6  245    7  64.8  68.2 1017.1 13.9  1.010 -99.9 -99.99 -9.99
2019/09/16 01:42 EDT    0.67   0.98    6  235    7  64.9  68.2 1017.0 13.8  1.010 -99.9 -99.99 -9.99
2019/09/16 01:48 EDT    0.59   0.89    6  243    7  65.1  68.2 1017.0 13.7  1.009 -99.9 -99.99 -9.99
2019/09/16 01:54 EDT    0.52   0.81    5  260    7  65.1  68.4 1017.1 13.8  1.010 -99.9 -99.99 -9.99
2019/09/16 02:00 EDT    0.45   0.73    5  252    6  64.8  68.4 1017.1 13.7  1.009 -99.9 -99.99 -9.99
2019/09/16 02:06 EDT    0.39   0.65    6  244    7  64.6  68.4 1017.0 13.8  1.010 -99.9 -99.99 -9.99
2019/09/16 02:12 EDT    0.33   0.59    6  247    7  64.8  68.4 1017.1 13.8  1.010 -99.9 -99.99 -9.99
2019/09/16 02:18 EDT    0.28   0.52    7  250    8  65.1  68.4 1017.0 13.8  1.010 -99.9 -99.99 -9.99
2019/09/16 02:24 EDT    0.24   0.50    3  304    7  64.8  68.4 1017.2 13.8  1.010 -99.9 -99.99 -9.99
2019/09/16 02:30 EDT    0.20   0.47    3  356    5  64.6  68.4 1017.2 13.8  1.010 -99.9 -99.99 -9.99
2019/09/16 02:36 EDT    0.17   0.40    5    8    6  64.6  68.4 1017.2 13.8  1.010 -99.9 -99.99 -9.99
2019/09/16 02:42 EDT    0.14   0.38    3   18    6  64.9  68.4 1017.2 13.8  1.010 -99.9 -99.99 -9.99
2019/09/16 02:48 EDT    0.12   0.37    3  359    5  65.3  68.4 1017.3 13.8  1.010 -99.9 -99.99 -9.99
2019/09/16 02:54 EDT    0.11   0.37    4    6    5  65.3  68.4 1017.3 13.8  1.010 -99.9 -99.99 -9.99
2019/09/16 03:00 EDT    0.10   0.37    3  337    4  65.1  68.4 1017.4 13.8  1.010 -99.9 -99.99 -9.99
2019/09/16 03:06 EDT    0.09   0.38    1  325    2  65.1  68.4 1017.4 13.8  1.010 -99.9 -99.99 -9.99
2019/09/16 03:12 EDT    0.10   0.39    1  347    2  65.1  68.4 1017.3 13.7  1.009 -99.9 -99.99 -9.99
2019/09/16 03:18 EDT    0.11   0.40    0   18    2  65.5  68.4 1017.2 13.8  1.009 -99.9 -99.99 -9.99
2019/09/16 03:24 EDT    0.12   0.40    1  333    2  65.5  68.2 1017.3 13.8  1.010 -99.9 -99.99 -9.99
2019/09/16 03:30 EDT    0.14   0.41    1  322    2  65.5  68.4 1017.2 13.8  1.009 -99.9 -99.99 -9.99
2019/09/16 03:36 EDT    0.16   0.44    1  288    2  65.7  68.4 1017.2 13.8  1.009 -99.9 -99.99 -9.99
2019/09/16 03:42 EDT    0.19   0.49    4  277    5  65.7  68.4 1017.2 13.8  1.010 -99.9 -99.99 -9.99
2019/09/16 03:48 EDT    0.22   0.50    2  281    5  65.5  68.4 1017.2 13.8  1.010 -99.9 -99.99 -9.99
2019/09/16 03:54 EDT    0.26   0.53    3  276    5  65.7  68.4 1017.2 13.8  1.009 -99.9 -99.99 -9.99
2019/09/16 04:00 EDT    0.29   0.55    1  292    4  65.7  68.4 1017.2 13.8  1.010 -99.9 -99.99 -9.99
2019/09/16 04:06 EDT    0.34   0.57    3  269    4  65.8  68.4 1017.2 13.8  1.009 -99.9 -99.99 -9.99
2019/09/16 04:12 EDT    0.38   0.61    3  284    4  65.7  68.4 1017.3 13.8  1.010 -99.9 -99.99 -9.99
2019/09/16 04:18 EDT    0.43   0.64    4  290    7  66.0  68.4 1017.2 13.8  1.010 -99.9 -99.99 -9.99
2019/09/16 04:24 EDT    0.48   0.70    4  298    8  66.6  68.4 1017.2 13.8  1.010 -99.9 -99.99 -9.99
2019/09/16 04:30 EDT    0.53   0.75    4  309    7  66.6  68.4 1017.1 13.8  1.010 -99.9 -99.99 -9.99
2019/09/16 04:36 EDT    0.59   0.77    5  312    8  66.4  68.4 1017.1 13.8  1.010 -99.9 -99.99 -9.99
2019/09/16 04:42 EDT    0.65   0.82    5  322    8  66.2  68.4 1017.0 13.8  1.010 -99.9 -99.99 -9.99
2019/09/16 04:48 EDT    0.71   0.88    5  328    7  66.4  68.4 1017.1 13.8  1.010 -99.9 -99.99 -9.99
2019/09/16 04:54 EDT    0.77   0.97    5  327    8  66.2  68.4 1017.2 13.8  1.010 -99.9 -99.99 -9.99
2019/09/16 05:00 EDT    0.83   1.07    4  350    7  66.2  68.4 1017.2 13.8  1.010 -99.9 -99.99 -9.99
2019/09/16 05:06 EDT    0.89   1.14    4  326    6  66.0  68.4 1017.1 13.8  1.010 -99.9 -99.99 -9.99
2019/09/16 05:12 EDT    0.96   1.18    6  324    7  66.0  68.4 1017.2 13.8  1.010 -99.9 -99.99 -9.99
2019/09/16 05:18 EDT    1.02   1.22    6  323    8  66.4  68.4 1017.3 13.8  1.009 -99.9 -99.99 -9.99
2019/09/16 05:24 EDT    1.09   1.29    5  323    9  66.6  68.4 1017.3 13.8  1.009 -99.9 -99.99 -9.99
2019/09/16 05:30 EDT    1.16   1.38    6  321    8  66.4  68.2 1017.3 13.8  1.010 -99.9 -99.99 -9.99
2019/09/16 05:36 EDT    1.22   1.44    5  320    8  66.2  68.2 1017.4 13.8  1.010 -99.9 -99.99 -9.99
2019/09/16 05:42 EDT    1.29   1.52    5  321    8  66.2  68.4 1017.4 13.8  1.010 -99.9 -99.99 -9.99
2019/09/16 05:48 EDT    1.37   1.58    5  327    7  66.2  68.2 1017.5 13.8  1.010 -99.9 -99.99 -9.99
2019/09/16 05:54 EDT    1.44   1.64    5  333    7  65.8  68.4 1017.6 13.8  1.010 -99.9 -99.99 -9.99
2019/09/16 06:00 EDT    1.51   1.73    5  328    7  65.8  68.2 1017.7 13.8  1.010 -99.9 -99.99 -9.99
2019/09/16 06:06 EDT    1.58   1.80    6  325    8  65.7  68.4 1017.7 13.8  1.010 -99.9 -99.99 -9.99
2019/09/16 06:12 EDT    1.66   1.87    6  327    7  65.7  68.2 1017.8 13.8  1.010 -99.9 -99.99 -9.99
2019/09/16 06:18 EDT    1.74   1.93    5  326    7  65.7  68.4 1017.8 13.8  1.010 -99.9 -99.99 -9.99
2019/09/16 06:24 EDT    1.81   2.02    4  340    7  65.8  68.4 1017.7 13.8  1.010 -99.9 -99.99 -9.99
2019/09/16 06:30 EDT    1.89   2.10    4  337    6  66.0  68.4 1017.8 13.8  1.010 -99.9 -99.99 -9.99
2019/09/16 06:36 EDT    1.97   2.17    4  331    5  66.0  68.2 1017.9 13.9  1.010 -99.9 -99.99 -9.99
2019/09/16 06:42 EDT    2.05   2.24    4  340    5  65.8  68.2 1017.9 13.8  1.010 -99.9 -99.99 -9.99
2019/09/16 06:48 EDT    2.13   2.34    4  340    6  65.8  68.4 1018.0 13.8  1.010 -99.9 -99.99 -9.99
2019/09/16 06:54 EDT    2.21   2.43    3  350    4  65.7  68.4 1017.9 13.8  1.010 -99.9 -99.99 -9.99
2019/09/16 07:00 EDT    2.29   2.50    4    1    5  66.0  68.4 1018.0 13.8  1.010 -99.9 -99.99 -9.99
2019/09/16 07:06 EDT    2.38   2.57    5  360    6  66.2  68.4 1018.1 13.8  1.010 -99.9 -99.99 -9.99
2019/09/16 07:12 EDT    2.46   2.67    4  358    8  66.0  68.4 1018.0 13.9  1.010 -99.9 -99.99 -9.99
2019/09/16 07:18 EDT    2.54   2.78    5    4    6  66.0  68.4 1018.0 13.9  1.010 -99.9 -99.99 -9.99
2019/09/16 07:24 EDT    2.63   2.84    5    5    6  66.0  68.4 1017.9 13.9  1.010 -99.9 -99.99 -9.99
2019/09/16 07:30 EDT    2.71   2.93    5  356    6  66.2  68.4 1017.8 13.8  1.010 -99.9 -99.99 -9.99
2019/09/16 07:36 EDT    2.79   3.02    6    1    8  66.0  68.4 1017.8 13.9  1.010 -99.9 -99.99 -9.99
2019/09/16 07:42 EDT    2.88   3.11    7    0    9  66.0  68.4 1017.7 13.9  1.010 -99.9 -99.99 -9.99
2019/09/16 07:48 EDT    2.96   3.17    7  359   10  66.0  68.4 1017.8 13.8  1.010 -99.9 -99.99 -9.99
2019/09/16 07:54 EDT    3.04   3.25   10  351   12  65.8  68.4 1017.9 13.8  1.010 -99.9 -99.99 -9.99
2019/09/16 08:00 EDT    3.12   3.33    8  353   10  65.7  68.4 1017.9 13.8  1.010 -99.9 -99.99 -9.99
2019/09/16 08:06 EDT    3.19   3.41    7  351   11  66.2  68.4 1018.0 13.8  1.010 -99.9 -99.99 -9.99
2019/09/16 08:12 EDT    3.27   3.48    7  348    9  66.6  68.4 1018.1 13.8  1.010 -99.9 -99.99 -9.99
2019/09/16 08:18 EDT    3.34   3.57    6  336    9  66.6  68.4 1018.1 13.8  1.010 -99.9 -99.99 -9.99
2019/09/16 08:24 EDT    3.41   3.65    7    3    8  66.6  68.4 1018.1 13.8  1.010 -99.9 -99.99 -9.99
2019/09/16 08:30 EDT    3.48   3.72    7    4    8  66.7  68.4 1018.3 13.8  1.010 -99.9 -99.99 -9.99
2019/09/16 08:36 EDT    3.54   3.78    7   14   10  66.7  68.4 1018.3 13.8  1.010 -99.9 -99.99 -9.99
2019/09/16 08:42 EDT    3.60   3.86    8   10    9  66.7  68.4 1018.3 13.8  1.010 -99.9 -99.99 -9.99
2019/09/16 08:48 EDT    3.66   3.93    7   17    9  66.9  68.5 1018.2 13.8  1.009 -99.9 -99.99 -9.99
2019/09/16 08:54 EDT    3.71   4.01    7   30    9  66.7  68.5 1018.1 13.8  1.009 -99.9 -99.99 -9.99
2019/09/16 09:00 EDT    3.76   4.08    8   26    9  66.7  68.5 1018.2 13.8  1.010 -99.9 -99.99 -9.99
2019/09/16 09:06 EDT    3.81   4.13   10   22   13  67.1  68.5 1018.1 13.8  1.010 -99.9 -99.99 -9.99
2019/09/16 09:12 EDT    3.85   4.17    8   25   11  67.1  68.5 1018.2 13.9  1.010 -99.9 -99.99 -9.99
2019/09/16 09:18 EDT    3.88   4.22   11   35   12  66.2  68.5 1018.2 13.9  1.010 -99.9 -99.99 -9.99
2019/09/16 09:24 EDT    3.91   4.27   11   41   11  65.8  68.5 1018.1 13.9  1.010 -99.9 -99.99 -9.99
2019/09/16 09:30 EDT    3.93   4.32   11   32   12  65.7  68.5 1018.1 14.0  1.010 -99.9 -99.99 -9.99
2019/09/16 09:36 EDT    3.95   4.33   10   37   12  66.2  68.5 1018.1 14.0  1.010 -99.9 -99.99 -9.99
2019/09/16 09:42 EDT    3.97   4.33   10   35   11  65.8  68.5 1018.1 14.0  1.010 -99.9 -99.99 -9.99
2019/09/16 09:48 EDT    3.98   4.36    9   41   11  66.0  68.5 1018.1 14.0  1.010 -99.9 -99.99 -9.99
2019/09/16 09:54 EDT    3.98   4.36    9   45   11  66.2  68.5 1018.1 13.9  1.010 -99.9 -99.99 -9.99
2019/09/16 10:00 EDT    3.98   4.36    9   40   10  66.2  68.4 1018.1 13.9  1.010 -99.9 -99.99 -9.99
2019/09/16 10:06 EDT    3.97   4.34   10   49   11  66.2  68.4 1018.1 13.9  1.010 -99.9 -99.99 -9.99
2019/09/16 10:12 EDT    3.95   4.34    9   54   11  66.2  68.4 1018.0 13.9  1.010 -99.9 -99.99 -9.99
2019/09/16 10:18 EDT    3.93   4.32    9   47   10  66.2  68.4 1018.0 13.9  1.010 -99.9 -99.99 -9.99
2019/09/16 10:24 EDT    3.91   4.30    9   46   10  66.4  68.5 1017.9 13.9  1.010 -99.9 -99.99 -9.99
2019/09/16 10:30 EDT    3.88   4.29    9   49   10  66.0  68.5 1017.8 13.9  1.010 -99.9 -99.99 -9.99
2019/09/16 10:36 EDT    3.84   4.26    9   44   10  66.2  68.5 1017.8 13.9  1.010 -99.9 -99.99 -9.99
2019/09/16 10:42 EDT    3.80   4.24    8   44   10  66.4  68.5 1017.7 13.9  1.010 -99.9 -99.99 -9.99
2019/09/16 10:48 EDT    3.76   4.17    8   46   10  66.4  68.7 1017.7 13.9  1.010 -99.9 -99.99 -9.99
2019/09/16 10:54 EDT    3.71   4.13    8   49    9  66.4  68.7 1017.7 13.9  1.010 -99.9 -99.99 -9.99
2019/09/16 11:00 EDT    3.65   4.12    9   46    9  66.6  68.5 1017.7 14.0  1.010 -99.9 -99.99 -9.99
2019/09/16 11:06 EDT    3.59   4.08    7   42    9  66.6  68.4 1017.7 13.9  1.010 -99.9 -99.99 -9.99
2019/09/16 11:12 EDT    3.53   3.98    9   42   10  66.6  68.4 1017.5 14.0  1.010 -99.9 -99.99 -9.99
2019/09/16 11:18 EDT    3.46   3.91    9   37   10  66.7  68.4 1017.5 13.9  1.010 -99.9 -99.99 -9.99
2019/09/16 11:24 EDT    3.39   3.85    8   34   10  66.7  68.4 1017.4 14.0  1.010 -99.9 -99.99 -9.99
2019/09/16 11:30 EDT    3.31   3.77    8   42    9  67.1  68.4 1017.4 14.0  1.010 -99.9 -99.99 -9.99
2019/09/16 11:36 EDT    3.23   3.70    6   35    8  67.3  68.2 1017.4 14.0  1.010 -99.9 -99.99 -9.99
2019/09/16 11:42 EDT    3.14   3.63    6   57    7  67.5  68.2 1017.4 14.0  1.010 -99.9 -99.99 -9.99
2019/09/16 11:48 EDT    3.06   3.53    7   50    8  67.3  68.2 1017.3 14.0  1.010 -99.9 -99.99 -9.99
2019/09/16 11:54 EDT    2.97   3.42    8   49    9  67.6  68.4 1017.2 13.9  1.010 -99.9 -99.99 -9.99
2019/09/16 12:00 EDT    2.87   3.30    7   20   12  69.1  68.4 1017.1 14.0  1.010 -99.9 -99.99 -9.99
2019/09/16 12:06 EDT    2.78   3.21    4  329    8  69.6  68.2 1017.1 14.0  1.010 -99.9 -99.99 -9.99
2019/09/16 12:12 EDT    2.68   3.11    5  326    8  69.6  68.2 1017.1 14.0  1.010 -99.9 -99.99 -9.99
2019/09/16 12:18 EDT    2.58   3.01    4  304    7  70.3  68.2 1017.1 14.1  1.010 -99.9 -99.99 -9.99
2019/09/16 12:24 EDT    2.48   2.87    5  257    8  70.5  68.0 1017.0 14.1  1.010 -99.9 -99.99 -9.99
2019/09/16 12:30 EDT    2.37   2.76    5  334    7  70.9  68.2 1017.0 14.0  1.010 -99.9 -99.99 -9.99
2019/09/16 12:36 EDT    2.27   2.67    6  325    9  70.5  68.2 1016.9 14.0  1.010 -99.9 -99.99 -9.99
2019/09/16 12:42 EDT    2.16   2.56    5  332    9  70.7  68.2 1016.9 14.0  1.010 -99.9 -99.99 -9.99
2019/09/16 12:48 EDT    2.05   2.44    6  310   10  70.7  68.5 1016.8 14.0  1.010 -99.9 -99.99 -9.99
2019/09/16 12:54 EDT    1.95   2.34    4  261    5  71.6  68.5 1016.7 13.9  1.010 -99.9 -99.99 -9.99
2019/09/16 13:00 EDT    1.84   2.21    6  254    8  70.5  68.4 1016.6 14.0  1.010 -99.9 -99.99 -9.99
2019/09/16 13:06 EDT    1.74   2.10    5  255   10  71.1  68.2 1016.5 14.0  1.010 -99.9 -99.99 -9.99
2019/09/16 13:12 EDT    1.63   2.01    5  248    8  71.1  68.2 1016.5 14.0  1.010 -99.9 -99.99 -9.99
2019/09/16 13:18 EDT    1.53   1.92    8  271   11  72.1  68.4 1016.4 13.8  1.010 -99.9 -99.99 -9.99
2019/09/16 13:24 EDT    1.43   1.82    5  273    7  72.3  68.4 1016.4 13.9  1.010 -99.9 -99.99 -9.99
2019/09/16 13:30 EDT    1.33   1.68    6   38    8  70.2  68.4 1016.3 13.9  1.010 -99.9 -99.99 -9.99
2019/09/16 13:36 EDT    1.23   1.58    6   13    9  70.7  68.2 1016.4 13.8  1.010 -99.9 -99.99 -9.99
2019/09/16 13:42 EDT    1.14   1.48    5  323    8  71.6  68.2 1016.4 13.9  1.010 -99.9 -99.99 -9.99
2019/09/16 13:48 EDT    1.05   1.39    6  334    8  71.8  68.2 1016.4 14.0  1.010 -99.9 -99.99 -9.99
2019/09/16 13:54 EDT    0.96   1.31    8  305   10  71.4  68.4 1016.4 13.9  1.010 -99.9 -99.99 -9.99
2019/09/16 14:00 EDT    0.88   1.25    9  301   11  72.0  69.1 1016.3 13.7  1.009 -99.9 -99.99 -9.99
2019/09/16 14:06 EDT    0.80   1.17    6  292   10  72.9  69.1 1016.3 13.7  1.009 -99.9 -99.99 -9.99
2019/09/16 14:12 EDT    0.72   1.07    6  296    9  72.9  68.4 1016.3 13.9  1.010 -99.9 -99.99 -9.99
2019/09/16 14:18 EDT    0.65   0.99    7  330   10  72.7  68.2 1016.4 13.9  1.010 -99.9 -99.99 -9.99
2019/09/16 14:24 EDT    0.59   0.97    6  333   10  72.1  68.2 1016.4 13.8  1.010 -99.9 -99.99 -9.99
2019/09/16 14:30 EDT    0.53   0.93    6  329    9  72.5  68.5 1016.3 13.7  1.009 -99.9 -99.99 -9.99
2019/09/16 14:36 EDT    0.47   0.89    6  300    9  72.7  68.5 1016.3 13.8  1.009 -99.9 -99.99 -9.99
2019/09/16 14:42 EDT    0.42   0.83    5  330    7  72.0  68.5 1016.3 13.8  1.009 -99.9 -99.99 -9.99
2019/09/16 14:48 EDT    0.38   0.81    4  353    9  72.0  68.4 1016.2 13.8  1.010 -99.9 -99.99 -9.99
2019/09/16 14:54 EDT    0.34   0.79    4  250    8  72.7  68.4 1016.1 13.8  1.010 -99.9 -99.99 -9.99
2019/09/16 15:00 EDT    0.31   0.78    4  264    9  73.4  68.5 1016.1 13.7  1.009 -99.9 -99.99 -9.99
2019/09/16 15:06 EDT    0.28   0.76    4  275    6  73.2  68.5 1016.1 13.8  1.010 -99.9 -99.99 -9.99
2019/09/16 15:12 EDT    0.26   0.76    6  300   10  73.4  68.5 1016.0 13.9  1.010 -99.9 -99.99 -9.99
2019/09/16 15:18 EDT    0.24   0.76    6  261   11  72.1  68.7 1015.9 13.8  1.009 -99.9 -99.99 -9.99
2019/09/16 15:24 EDT    0.23   0.76    7  251   11  71.4  68.5 1015.8 13.9  1.010 -99.9 -99.99 -9.99
2019/09/16 15:30 EDT    0.23   0.76    8  240   10  71.1  68.7 1015.8 13.9  1.010 -99.9 -99.99 -9.99
2019/09/16 15:36 EDT    0.23   0.77    5  247   10  71.4  68.5 1015.8 13.8  1.009 -99.9 -99.99 -9.99
2019/09/16 15:42 EDT    0.23   0.81    7  255    9  71.4  68.4 1015.8 13.5  1.009 -99.9 -99.99 -9.99
2019/09/16 15:48 EDT    0.24   0.83    6  252    8  71.4  68.5 1015.7 13.6  1.009 -99.9 -99.99 -9.99
2019/09/16 15:54 EDT    0.26   0.86    5  208    7  70.2  68.7 1015.7 13.8  1.009 -99.9 -99.99 -9.99
2019/09/16 16:00 EDT    0.28   0.90    5  196    6  69.8  69.1 1015.6 13.7  1.009 -99.9 -99.99 -9.99
2019/09/16 16:06 EDT    0.30   0.93    7  186    9  69.6  69.3 1015.5 13.7  1.009 -99.9 -99.99 -9.99
2019/09/16 16:12 EDT    0.33   0.97    7  180   10  69.8  69.3 1015.6 13.7  1.009 -99.9 -99.99 -9.99
2019/09/16 16:18 EDT    0.36   1.00    6  184    8  70.5  69.4 1015.5 13.7  1.009 -99.9 -99.99 -9.99
2019/09/16 16:24 EDT    0.39   1.04    5  181    7  70.3  69.4 1015.7 13.6  1.009 -99.9 -99.99 -9.99
2019/09/16 16:30 EDT    0.43   1.11    1  256    5  70.5  69.6 1015.7 13.7  1.009 -99.9 -99.99 -9.99
2019/09/16 16:36 EDT    0.47   1.16    6  347    8  72.7  69.6 1015.6 13.6  1.009 -99.9 -99.99 -9.99
2019/09/16 16:42 EDT    0.51   1.18   10  353   12  73.0  69.6 1015.5 13.7  1.009 -99.9 -99.99 -9.99
2019/09/16 16:48 EDT    0.56   1.17    8  339   11  73.4  69.6 1015.5 13.6  1.009 -99.9 -99.99 -9.99
2019/09/16 16:54 EDT    0.60   1.21    8  348   11  72.9  69.6 1015.6 13.6  1.009 -99.9 -99.99 -9.99
2019/09/16 17:00 EDT    0.65   1.25    8  337   11  73.0  69.6 1015.6 13.6  1.009 -99.9 -99.99 -9.99
2019/09/16 17:06 EDT    0.70   1.28    9  341   12  73.2  69.4 1015.5 13.7  1.009 -99.9 -99.99 -9.99
2019/09/16 17:12 EDT    0.76   1.33    8  334   11  73.2  69.4 1015.6 13.7  1.009 -99.9 -99.99 -9.99
2019/09/16 17:18 EDT    0.81   1.39    7  319   12  73.2  69.3 1015.7 13.7  1.009 -99.9 -99.99 -9.99
2019/09/16 17:24 EDT    0.87   1.46    7  325   11  73.0  69.4 1015.7 13.6  1.009 -99.9 -99.99 -9.99
2019/09/16 17:30 EDT    0.92   1.48    6  319   11  73.0  69.4 1015.6 13.6  1.009 -99.9 -99.99 -9.99
2019/09/16 17:36 EDT    0.98   1.56    7  335   10  72.9  69.4 1015.7 13.6  1.009 -99.9 -99.99 -9.99
2019/09/16 17:42 EDT    1.04   1.62    7  342   10  72.7  69.4 1015.7 13.7  1.009 -99.9 -99.99 -9.99
2019/09/16 17:48 EDT    1.10   1.67    8  352    9  72.3  69.4 1015.7 13.6  1.009 -99.9 -99.99 -9.99
2019/09/16 17:54 EDT    1.16   1.74    6  348    8  72.5  69.4 1015.8 13.7  1.009 -99.9 -99.99 -9.99
2019/09/16 18:00 EDT    1.23   1.79    6  349    8  72.3  69.4 1015.8 13.7  1.009 -99.9 -99.99 -9.99
2019/09/16 18:06 EDT    1.29   1.85    6  355    7  72.0  69.4 1015.8 13.7  1.009 -99.9 -99.99 -9.99
2019/09/16 18:12 EDT    1.35   1.87    6  349    9  71.8  69.4 1015.8 13.7  1.009 -99.9 -99.99 -9.99
2019/09/16 18:18 EDT    1.42   1.93    7  343   10  71.8  69.4 1015.9 13.7  1.009 -99.9 -99.99 -9.99
2019/09/16 18:24 EDT    1.49   2.02    6  340    8  71.6  69.4 1016.0 13.6  1.009 -99.9 -99.99 -9.99
2019/09/16 18:30 EDT    1.56   2.08    5  346    9  71.2  69.4 1016.1 13.6  1.009 -99.9 -99.99 -9.99
2019/09/16 18:36 EDT    1.63   2.13    3  325    6  71.1  69.4 1016.1 13.7  1.009 -99.9 -99.99 -9.99
2019/09/16 18:42 EDT    1.70   2.20    4  329    9  70.7  69.4 1016.1 13.6  1.009 -99.9 -99.99 -9.99
2019/09/16 18:48 EDT    1.77   2.28    5  323    7  70.5  69.4 1016.1 13.6  1.009 -99.9 -99.99 -9.99
2019/09/16 18:54 EDT    1.84   2.32    4  320    8  70.5  69.4 1016.1 13.6  1.009 -99.9 -99.99 -9.99
2019/09/16 19:00 EDT    1.92   2.40    5  323    7  70.3  69.4 1016.2 13.6  1.009 -99.9 -99.99 -9.99
2019/09/16 19:06 EDT    1.99   2.51    4  323    6  70.2  69.4 1016.3 13.6  1.009 -99.9 -99.99 -9.99
2019/09/16 19:12 EDT    2.07   2.58    4  323    6  70.2  69.4 1016.4 13.6  1.009 -99.9 -99.99 -9.99
2019/09/16 19:18 EDT    2.14   2.65    3  318    5  70.0  69.4 1016.4 13.6  1.009 -99.9 -99.99 -9.99
2019/09/16 19:24 EDT    2.22   2.71    3  326    5  69.6  69.4 1016.5 13.6  1.009 -99.9 -99.99 -9.99
2019/09/16 19:30 EDT    2.30   2.78    4  330    6  69.3  69.4 1016.5 13.6  1.009 -99.9 -99.99 -9.99
2019/09/16 19:36 EDT    2.38   2.87    4  324    5  68.7  69.4 1016.5 13.6  1.009 -99.9 -99.99 -9.99
2019/09/16 19:42 EDT    2.46   2.95    4  329    6  68.5  69.4 1016.6 13.6  1.009 -99.9 -99.99 -9.99
2019/09/16 19:48 EDT    2.54   3.02    4  325    5  68.5  69.4 1016.6 13.6  1.009 -99.9 -99.99 -9.99
2019/09/16 19:54 EDT    2.62   3.10    4  329    5  68.5  69.4 1016.7 13.6  1.009 -99.9 -99.99 -9.99
2019/09/16 20:00 EDT    2.69   3.17    4  337    6  68.5  69.4 1016.8 13.6  1.009 -99.9 -99.99 -9.99
2019/09/16 20:06 EDT    2.77   3.23    4  337    6  68.2  69.4 1016.8 13.6  1.009 -99.9 -99.99 -9.99
2019/09/16 20:12 EDT    2.85   3.27    4  333    6  68.0  69.4 1016.8 13.6  1.009 -99.9 -99.99 -9.99
2019/09/16 20:18 EDT    2.93   3.35    4  327    4  67.6  69.4 1016.9 13.6  1.009 -99.9 -99.99 -9.99
2019/09/16 20:24 EDT    3.00   3.42    5  335    7  67.5  69.4 1016.9 13.6  1.009 -99.9 -99.99 -9.99
2019/09/16 20:30 EDT    3.07   3.47    4  333    6  67.1  69.4 1017.0 13.6  1.009 -99.9 -99.99 -9.99
2019/09/16 20:36 EDT    3.14   3.55    4  326    6  66.9  69.4 1017.1 13.6  1.009 -99.9 -99.99 -9.99
2019/09/16 20:42 EDT    3.21   3.64    4  328    5  66.7  69.4 1017.2 13.6  1.009 -99.9 -99.99 -9.99
2019/09/16 20:48 EDT    3.28   3.68    4  328    6  66.6  69.4 1017.3 13.6  1.009 -99.9 -99.99 -9.99
2019/09/16 20:54 EDT    3.34   3.74    4  324    6  66.4  69.4 1017.3 13.6  1.009 -99.9 -99.99 -9.99
2019/09/16 21:00 EDT    3.40   3.80    4  330    6  66.0  69.3 1017.4 13.6  1.009 -99.9 -99.99 -9.99
2019/09/16 21:06 EDT    3.46   3.86    4  319    7  65.7  69.3 1017.4 13.7  1.009 -99.9 -99.99 -9.99
2019/09/16 21:12 EDT    3.51   3.89    4  316    7  65.7  69.3 1017.5 13.7  1.009 -99.9 -99.99 -9.99
2019/09/16 21:18 EDT    3.55   3.92    4  320    7  65.3  69.3 1017.5 13.7  1.009 -99.9 -99.99 -9.99
2019/09/16 21:24 EDT    3.60   3.97    5  318    7  64.8  69.3 1017.5 13.7  1.009 -99.9 -99.99 -9.99
2019/09/16 21:30 EDT    3.64   4.01    5  324    8  64.4  69.3 1017.6 13.7  1.009 -99.9 -99.99 -9.99
2019/09/16 21:36 EDT    3.67   4.03    4  335    7  64.6  69.3 1017.6 13.8  1.009 -99.9 -99.99 -9.99
2019/09/16 21:42 EDT    3.70   4.04    4  325    6  64.0  69.3 1017.7 13.8  1.009 -99.9 -99.99 -9.99
2019/09/16 21:48 EDT    3.72   4.07    4  325    7  63.7  69.3 1017.8 13.8  1.009 -99.9 -99.99 -9.99
2019/09/16 21:54 EDT    3.74   4.06    6  334    7  63.5  69.3 1017.8 13.7  1.009 -99.9 -99.99 -9.99
2019/09/16 22:00 EDT    3.75   4.07    6  341    9  63.7  69.3 1017.9 13.6  1.009 -99.9 -99.99 -9.99
2019/09/16 22:06 EDT    3.76   4.07    7   10    9  64.8  69.1 1017.9 13.7  1.009 -99.9 -99.99 -9.99
2019/09/16 22:12 EDT    3.76   4.06    8   29   11  64.9  69.1 1018.0 13.7  1.009 -99.9 -99.99 -9.99
2019/09/16 22:18 EDT    3.76   4.02    7   36    9  64.8  69.1 1018.0 13.7  1.009 -99.9 -99.99 -9.99
2019/09/16 22:24 EDT    3.75   4.03    6   55    9  64.4  69.1 1018.0 13.7  1.009 -99.9 -99.99 -9.99
2019/09/16 22:30 EDT    3.73   4.03    6   52    8  64.0  69.1 1018.0 13.8  1.009 -99.9 -99.99 -9.99
2019/09/16 22:36 EDT    3.71   4.01    4   56    7  64.0  69.1 1018.0 13.7  1.009 -99.9 -99.99 -9.99
2019/09/16 22:42 EDT    3.68   3.98    4   71    5  63.9  69.1 1018.1 13.7  1.009 -99.9 -99.99 -9.99
2019/09/16 22:48 EDT    3.65   3.99    3   56    5  63.9  69.1 1018.2 13.7  1.009 -99.9 -99.99 -9.99
2019/09/16 22:54 EDT    3.62   3.99    3   26    4  63.9  69.1 1018.3 13.6  1.009 -99.9 -99.99 -9.99
2019/09/16 23:00 EDT    3.57   3.93    2   53    3  63.9  69.1 1018.2 13.7  1.009 -99.9 -99.99 -9.99
2019/09/16 23:06 EDT    3.53   3.87    2  319    4  63.0  69.1 1018.2 13.7  1.009 -99.9 -99.99 -9.99
2019/09/16 23:12 EDT    3.47   3.85    3  330    6  62.6  69.1 1018.2 13.7  1.009 -99.9 -99.99 -9.99
2019/09/16 23:18 EDT    3.42   3.80    2  337    5  62.8  68.9 1018.2 13.7  1.009 -99.9 -99.99 -9.99
2019/09/16 23:24 EDT    3.35   3.72    2  328    5  62.1  68.9 1018.3 13.7  1.009 -99.9 -99.99 -9.99
2019/09/16 23:30 EDT    3.29   3.68    4  318    5  61.7  68.9 1018.2 13.7  1.009 -99.9 -99.99 -9.99
2019/09/16 23:36 EDT    3.22   3.63    4  332    6  61.2  68.7 1018.2 13.7  1.009 -99.9 -99.99 -9.99
2019/09/16 23:42 EDT    3.14   3.55    3  320    5  61.0  68.7 1018.2 13.7  1.009 -99.9 -99.99 -9.99
2019/09/16 23:48 EDT    3.06   3.46    4  324    6  60.4  68.7 1018.2 13.7  1.009 -99.9 -99.99 -9.99
2019/09/16 23:54 EDT    2.98   3.40    5  331    6  60.3  68.7 1018.3 13.7  1.009 -99.9 -99.99 -9.99
2019/09/17 00:00 EDT    2.90   3.34    4  322    6  60.4  68.7 1018.4 13.7  1.009 -99.9 -99.99 -9.99
2019/09/17 00:06 EDT    2.81   3.26    3  310    5  60.4  68.5 1018.4 13.7  1.009 -99.9 -99.99 -9.99
2019/09/17 00:12 EDT    2.72   3.16    3  319    5  60.1  68.5 1018.4 13.7  1.009 -99.9 -99.99 -9.99
2019/09/17 00:18 EDT    2.62   3.07    4  319    5  59.9  68.5 1018.4 13.8  1.009 -99.9 -99.99 -9.99
2019/09/17 00:24 EDT    2.53   2.97    3  323    5  59.5  68.5 1018.4 13.8  1.010 -99.9 -99.99 -9.99
2019/09/17 00:30 EDT    2.43   2.86    4  325    5  59.4  68.5 1018.5 13.8  1.009 -99.9 -99.99 -9.99
2019/09/17 00:36 EDT    2.33   2.78    4  323    6  59.2  68.5 1018.5 13.8  1.009 -99.9 -99.99 -9.99
2019/09/17 00:42 EDT    2.22   2.68    4  326    6  59.0  68.5 1018.5 13.8  1.009 -99.9 -99.99 -9.99
2019/09/17 00:48 EDT    2.12   2.55    4  326    6  59.2  68.5 1018.6 13.8  1.010 -99.9 -99.99 -9.99
2019/09/17 00:54 EDT    2.02   2.44    5  327    7  59.0  68.5 1018.7 13.8  1.009 -99.9 -99.99 -9.99
2019/09/17 01:00 EDT    1.91   2.35    5  325    7  59.0  68.4 1018.6 13.8  1.010 -99.9 -99.99 -9.99
2019/09/17 01:06 EDT    1.81   2.25    4  328    6  59.0  68.4 1018.7 13.9  1.010 -99.9 -99.99 -9.99
2019/09/17 01:12 EDT    1.71   2.15    5  332    6  59.2  68.4 1018.7 13.9  1.010 -99.9 -99.99 -9.99
2019/09/17 01:18 EDT    1.60   2.04    4  332    7  59.2  68.4 1018.7 13.9  1.010 -99.9 -99.99 -9.99
2019/09/17 01:24 EDT    1.50   1.94    4  334    6  59.2  68.2 1018.6 13.9  1.010 -99.9 -99.99 -9.99
2019/09/17 01:30 EDT    1.40   1.85    4  333    6  59.2  68.2 1018.6 13.9  1.010 -99.9 -99.99 -9.99
2019/09/17 01:36 EDT    1.30   1.75    4  332    6  59.0  68.4 1018.6 13.8  1.010 -99.9 -99.99 -9.99
2019/09/17 01:42 EDT    1.20   1.65    4  327    5  58.8  68.5 1018.6 13.7  1.009 -99.9 -99.99 -9.99
2019/09/17 01:48 EDT    1.11   1.55    4  321    5  58.5  68.4 1018.6 13.8  1.010 -99.9 -99.99 -9.99
2019/09/17 01:54 EDT    1.01   1.45    4  321    5  58.3  68.4 1018.5 13.7  1.009 -99.9 -99.99 -9.99
2019/09/17 02:00 EDT    0.93   1.31    4  320    6  57.9  68.5 1018.5 13.7  1.009 -99.9 -99.99 -9.99
2019/09/17 02:06 EDT    0.84   1.20    5  324    7  57.6  68.5 1018.5 13.8  1.009 -99.9 -99.99 -9.99
2019/09/17 02:12 EDT    0.76   1.10    4  322    6  57.4  68.5 1018.5 13.7  1.009 -99.9 -99.99 -9.99
2019/09/17 02:18 EDT    0.68   1.02    3  318    6  57.6  68.5 1018.4 13.7  1.009 -99.9 -99.99 -9.99
2019/09/17 02:24 EDT    0.61   0.94    4  318    6  57.2  68.5 1018.4 13.6  1.009 -99.9 -99.99 -9.99
2019/09/17 02:30 EDT    0.54   0.88    4  317    7  57.4  68.5 1018.5 13.6  1.009 -99.9 -99.99 -9.99
2019/09/17 02:36 EDT    0.48   0.82    4  310    6  57.0  68.5 1018.4 13.5  1.009 -99.9 -99.99 -9.99
2019/09/17 02:42 EDT    0.42   0.74    4  310    6  56.8  68.4 1018.5 13.6  1.009 -99.9 -99.99 -9.99
2019/09/17 02:48 EDT    0.36   0.69    4  309    7  56.8  68.4 1018.4 13.6  1.009 -99.9 -99.99 -9.99
2019/09/17 02:54 EDT    0.32   0.66    4  308    6  57.0  68.4 1018.4 13.6  1.009 -99.9 -99.99 -9.99
2019/09/17 03:00 EDT    0.28   0.63    3  311    7  57.0  68.4 1018.4 13.6  1.009 -99.9 -99.99 -9.99
2019/09/17 03:06 EDT    0.24   0.56    3  317    7  57.0  68.4 1018.3 13.6  1.009 -99.9 -99.99 -9.99
2019/09/17 03:12 EDT    0.21   0.53    4  320    7  56.7  68.4 1018.2 13.6  1.009 -99.9 -99.99 -9.99
2019/09/17 03:18 EDT    0.19   0.52    4  321    6  56.7  68.4 1018.2 13.6  1.009 -99.9 -99.99 -9.99
2019/09/17 03:24 EDT    0.17   0.49    4  317    6  56.7  68.4 1018.3 13.6  1.009 -99.9 -99.99 -9.99
2019/09/17 03:30 EDT    0.16   0.45    4  319    6  56.8  68.4 1018.2 13.5  1.009 -99.9 -99.99 -9.99
2019/09/17 03:36 EDT    0.15   0.46    5  320    8  57.0  68.4 1018.1 13.6  1.009 -99.9 -99.99 -9.99
2019/09/17 03:42 EDT    0.15   0.46    5  322    8  57.0  68.4 1018.0 13.5  1.009 -99.9 -99.99 -9.99
2019/09/17 03:48 EDT    0.16   0.48    4  319    7  57.4  68.4 1018.1 13.5  1.009 -99.9 -99.99 -9.99
2019/09/17 03:54 EDT    0.17   0.49    5  324    7  57.4  68.4 1018.1 13.5  1.009 -99.9 -99.99 -9.99
2019/09/17 04:00 EDT    0.19   0.55    6  329    8  57.4  68.4 1018.0 13.5  1.009 -99.9 -99.99 -9.99
2019/09/17 04:06 EDT    0.21   0.61    5  327    8  57.4  68.4 1018.0 13.5  1.009 -99.9 -99.99 -9.99
2019/09/17 04:12 EDT    0.23   0.64    5  325    7  57.6  68.4 1018.0 13.5  1.009 -99.9 -99.99 -9.99
2019/09/17 04:18 EDT    0.26   0.69    6  324    8  57.7  68.4 1018.1 13.5  1.009 -99.9 -99.99 -9.99
2019/09/17 04:24 EDT    0.30   0.74    6  324    9  57.4  68.4 1018.0 13.5  1.009 -99.9 -99.99 -9.99
2019/09/17 04:30 EDT    0.34   0.78    6  326    8  57.4  68.4 1018.0 13.5  1.009 -99.9 -99.99 -9.99
2019/09/17 04:36 EDT    0.38   0.81    6  325    8  57.6  68.4 1018.0 13.5  1.009 -99.9 -99.99 -9.99
2019/09/17 04:42 EDT    0.43   0.85    5  327    7  57.4  68.4 1018.1 13.5  1.009 -99.9 -99.99 -9.99
2019/09/17 04:48 EDT    0.48   0.92    4  332    6  57.4  68.4 1018.1 13.5  1.009 -99.9 -99.99 -9.99
2019/09/17 04:54 EDT    0.53   0.96    4  328    6  56.8  68.4 1018.1 13.5  1.009 -99.9 -99.99 -9.99
2019/09/17 05:00 EDT    0.58   1.00    4  331    5  56.8  68.4 1018.1 13.5  1.009 -99.9 -99.99 -9.99
2019/09/17 05:06 EDT    0.64   1.06    2  344    4  56.3  68.4 1018.2 13.5  1.009 -99.9 -99.99 -9.99
2019/09/17 05:12 EDT    0.70   1.11    3  339    5  56.3  68.4 1018.2 13.5  1.009 -99.9 -99.99 -9.99
2019/09/17 05:18 EDT    0.76   1.16    3  329    4  56.3  68.4 1018.3 13.5  1.009 -99.9 -99.99 -9.99
2019/09/17 05:24 EDT    0.83   1.20    4  331    5  56.3  68.4 1018.3 13.5  1.009 -99.9 -99.99 -9.99
2019/09/17 05:30 EDT    0.89   1.27    4  335    5  55.9  68.4 1018.4 13.5  1.009 -99.9 -99.99 -9.99
2019/09/17 05:36 EDT    0.95   1.36    4  325    5  55.4  68.4 1018.4 13.5  1.009 -99.9 -99.99 -9.99
2019/09/17 05:42 EDT    1.02   1.42    4  322    5  55.4  68.4 1018.5 13.5  1.009 -99.9 -99.99 -9.99
2019/09/17 05:48 EDT    1.09   1.46    3  327    5  55.4  68.4 1018.6 13.5  1.009 -99.9 -99.99 -9.99
2019/09/17 05:54 EDT    1.15   1.51    2  333    4  55.4  68.4 1018.7 13.5  1.009 -99.9 -99.99 -9.99
2019/09/17 06:00 EDT    1.22   1.56    2  353    4  55.4  68.4 1018.8 13.5  1.009 -99.9 -99.99 -9.99
2019/09/17 06:06 EDT    1.29   1.60    3  345    3  55.2  68.4 1018.8 13.5  1.009 -99.9 -99.99 -9.99
2019/09/17 06:12 EDT    1.36   1.67    2  318    3  55.2  68.4 1018.8 13.5  1.009 -99.9 -99.99 -9.99
2019/09/17 06:18 EDT    1.43   1.76    2  311    3  55.4  68.2 1018.9 13.5  1.009 -99.9 -99.99 -9.99
2019/09/17 06:24 EDT    1.50   1.83    1  311    3  55.8  68.4 1019.0 13.5  1.009 -99.9 -99.99 -9.99
2019/09/17 06:30 EDT    1.57   1.89    2  293    3  55.6  68.4 1019.1 13.5  1.009 -99.9 -99.99 -9.99
2019/09/17 06:36 EDT    1.64   1.95    2  294    3  55.9  68.4 1019.1 13.5  1.009 -99.9 -99.99 -9.99
2019/09/17 06:42 EDT    1.71   2.05    1  303    3  56.1  68.4 1019.1 13.5  1.009 -99.9 -99.99 -9.99
2019/09/17 06:48 EDT    1.78   2.13    2  295    3  56.3  68.4 1019.2 13.5  1.009 -99.9 -99.99 -9.99
2019/09/17 06:54 EDT    1.86   2.21    1  289    3  56.8  68.4 1019.3 13.5  1.009 -99.9 -99.99 -9.99
2019/09/17 07:00 EDT    1.93   2.28    1  295    2  57.4  68.4 1019.3 13.5  1.009 -99.9 -99.99 -9.99
2019/09/17 07:06 EDT    2.00   2.33    2  285    3  57.4  68.4 1019.4 13.5  1.009 -99.9 -99.99 -9.99
2019/09/17 07:12 EDT    2.07   2.38    2  289    3  57.4  68.4 1019.4 13.5  1.009 -99.9 -99.99 -9.99
2019/09/17 07:18 EDT    2.15   2.45    2  299    3  57.9  68.4 1019.4 13.5  1.009 -99.9 -99.99 -9.99
2019/09/17 07:24 EDT    2.22   2.52    1  310    3  58.6  68.4 1019.4 13.5  1.009 -99.9 -99.99 -9.99
2019/09/17 07:30 EDT    2.30   2.60    2  307    3  58.6  68.4 1019.4 13.5  1.009 -99.9 -99.99 -9.99
2019/09/17 07:36 EDT    2.37   2.66    3  327    5  58.6  68.4 1019.5 13.5  1.009 -99.9 -99.99 -9.99
2019/09/17 07:42 EDT    2.45   2.73    4  345    5  58.6  68.4 1019.5 13.5  1.009 -99.9 -99.99 -9.99
2019/09/17 07:48 EDT    2.52   2.82    5  350    8  59.9  68.4 1019.6 13.5  1.009 -99.9 -99.99 -9.99
2019/09/17 07:54 EDT    2.60   2.88    4  346    6  60.3  68.4 1019.6 13.5  1.009 -99.9 -99.99 -9.99
2019/09/17 08:00 EDT    2.67   2.95    7  345    9  61.3  68.4 1019.6 13.5  1.009 -99.9 -99.99 -9.99
2019/09/17 08:06 EDT    2.75   3.03    8  348   10  61.9  68.4 1019.6 13.5  1.009 -99.9 -99.99 -9.99
2019/09/17 08:12 EDT    2.82   3.12   11  345   12  62.1  68.4 1019.6 13.4  1.009 -99.9 -99.99 -9.99
2019/09/17 08:18 EDT    2.90   3.20    9  342   13  62.4  68.4 1019.6 13.4  1.009 -99.9 -99.99 -9.99
2019/09/17 08:24 EDT    2.97   3.28    9  336   14  62.6  68.4 1019.6 13.4  1.009 -99.9 -99.99 -9.99
2019/09/17 08:30 EDT    3.04   3.35   11  337   14  63.0  68.4 1019.6 13.4  1.009 -99.9 -99.99 -9.99
2019/09/17 08:36 EDT    3.11   3.46   10  340   15  63.1  68.4 1019.7 13.4  1.009 -99.9 -99.99 -9.99
2019/09/17 08:42 EDT    3.18   3.54   12  344   15  63.1  68.4 1019.7 13.5  1.009 -99.9 -99.99 -9.99
2019/09/17 08:48 EDT    3.25   3.61   10  337   15  63.3 -99.9 1019.7 -9.9 -9.999 -99.9 -99.99 -9.99
2019/09/17 08:54 EDT    3.32   3.68   13  347   16  63.1 -99.9 1019.8 -9.9 -9.999 -99.9 -99.99 -9.99
2019/09/17 09:00 EDT    3.38   3.75   13  346   17  63.3 -99.9 1019.8 -9.9 -9.999 -99.9 -99.99 -9.99
2019/09/17 09:06 EDT    3.44   3.80   11  343   16  63.5 -99.9 1019.8 -9.9 -9.999 -99.9 -99.99 -9.99
2019/09/17 09:12 EDT    3.50   3.88   10  342   15  64.2 -99.9 1019.8 -9.9 -9.999 -99.9 -99.99 -9.99
2019/09/17 09:18 EDT    3.56   3.96   10  347   14  64.4 -99.9 1019.8 -9.9 -9.999 -99.9 -99.99 -9.99
2019/09/17 09:24 EDT    3.61   3.99   10  349   14  64.8 -99.9 1019.8 -9.9 -9.999 -99.9 -99.99 -9.99
2019/09/17 09:30 EDT    3.66   4.04   12  350   15  64.6 -99.9 1019.8 -9.9 -9.999 -99.9 -99.99 -9.99
2019/09/17 09:36 EDT    3.70   4.11   11  350   15  64.9 -99.9 1019.8 -9.9 -9.999 -99.9 -99.99 -9.99
2019/09/17 09:42 EDT    3.74   4.19   10  348   16  64.9 -99.9 1019.7 -9.9 -9.999 -99.9 -99.99 -9.99
2019/09/17 09:48 EDT    3.78   4.21    8  339   13  65.5 -99.9 1019.7 -9.9 -9.999 -99.9 -99.99 -9.99
2019/09/17 09:54 EDT    3.81   4.25    9  348   14  65.8 -99.9 1019.7 -9.9 -9.999 -99.9 -99.99 -9.99
2019/09/17 10:00 EDT    3.84   4.31    8  330   10  66.4 -99.9 1019.7 -9.9 -9.999 -99.9 -99.99 -9.99
2019/09/17 10:06 EDT    3.86   4.34   10  347   16  66.6 -99.9 1019.6 -9.9 -9.999 -99.9 -99.99 -9.99
2019/09/17 10:12 EDT    3.88   4.33   10  352   15  66.7 -99.9 1019.7 -9.9 -9.999 -99.9 -99.99 -9.99
2019/09/17 10:18 EDT    3.89   4.34   12  352   16  67.3 -99.9 1019.6 -9.9 -9.999 -99.9 -99.99 -9.99
2019/09/17 10:24 EDT    3.90   4.35   13  358   16  66.9 -99.9 1019.6 -9.9 -9.999 -99.9 -99.99 -9.99
2019/09/17 10:30 EDT    3.90   4.34   11  346   17  67.3 -99.9 1019.6 -9.9 -9.999 -99.9 -99.99 -9.99
2019/09/17 10:36 EDT    3.89   4.31   13  349   17  66.9 -99.9 1019.6 -9.9 -9.999 -99.9 -99.99 -9.99
2019/09/17 10:42 EDT    3.88   4.31   13  360   18  67.1 -99.9 1019.6 -9.9 -9.999 -99.9 -99.99 -9.99
2019/09/17 10:48 EDT    3.87   4.30   14  359   19  66.9 -99.9 1019.6 -9.9 -9.999 -99.9 -99.99 -9.99
2019/09/17 10:54 EDT    3.85   4.30   14    4   17  66.9 -99.9 1019.6 -9.9 -9.999 -99.9 -99.99 -9.99
2019/09/17 11:00 EDT    3.83   4.28   13  354   19  67.3 -99.9 1019.6 -9.9 -9.999 -99.9 -99.99 -9.99
2019/09/17 11:06 EDT    3.80   4.23   11  346   18  67.1 -99.9 1019.6 -9.9 -9.999 -99.9 -99.99 -9.99
2019/09/17 11:12 EDT    3.76   4.21   12    1   16  67.3 -99.9 1019.6 -9.9 -9.999 -99.9 -99.99 -9.99
2019/09/17 11:18 EDT    3.72   4.17   14    8   17  66.9 -99.9 1019.7 -9.9 -9.999 -99.9 -99.99 -9.99
2019/09/17 11:24 EDT    3.68   4.09   15   14   18  67.1 -99.9 1019.7 -9.9 -9.999 -99.9 -99.99 -9.99
2019/09/17 11:30 EDT    3.63   4.03   14  357   18  67.3 -99.9 1019.7 -9.9 -9.999 -99.9 -99.99 -9.99
2019/09/17 11:36 EDT    3.58   3.97   15    8   19  66.9 -99.9 1019.7 -9.9 -9.999 -99.9 -99.99 -9.99
2019/09/17 11:42 EDT    3.52   3.89   16   21   19  66.6 -99.9 1019.7 -9.9 -9.999 -99.9 -99.99 -9.99
2019/09/17 11:48 EDT    3.46   3.83   14   16   18  66.9 -99.9 1019.7 -9.9 -9.999 -99.9 -99.99 -9.99
2019/09/17 11:54 EDT    3.39   3.77   15   11   18  66.9 -99.9 1019.8 -9.9 -9.999 -99.9 -99.99 -9.99
2019/09/17 12:00 EDT    3.32   3.70   16   23   18  66.4 -99.9 1019.8 -9.9 -9.999 -99.9 -99.99 -9.99
2019/09/17 12:06 EDT    3.25   3.62   15   22   19  66.2 -99.9 1019.8 -9.9 -9.999 -99.9 -99.99 -9.99
2019/09/17 12:12 EDT    3.17   3.52   15   19   17  66.7 -99.9 1019.7 -9.9 -9.999 -99.9 -99.99 -9.99
2019/09/17 12:18 EDT    3.09   3.47   14   19   17  66.9 -99.9 1019.7 -9.9 -9.999 -99.9 -99.99 -9.99
2019/09/17 12:24 EDT    3.01 -99.99 -999 -999 -999 -99.9 -99.9 -999.9 -9.9 -9.999 -99.9 -99.99 -9.99
2019/09/17 12:30 EDT    2.92 -99.99 -999 -999 -999 -99.9 -99.9 -999.9 -9.9 -9.999 -99.9 -99.99 -9.99
2019/09/17 12:36 EDT    2.83 -99.99 -999 -999 -999 -99.9 -99.9 -999.9 -9.9 -9.999 -99.9 -99.99 -9.99